BAW67T KMCO-EGLL
Flight info
| Callsign | BAW67T |
|---|---|
| Flight time | 8h 27m |
| Altitude | 32000 |
| Route | JEEMY4 PAINN SHRKS BERTT GURGE RAYVO Q87 NOWAE FAK BOOYA Q34 RBV Q22 LLUND BIZEX Q133 CAM BEEHS JIGZY TAFFY N693A NEEKO 5350N 5440N 5430N 5420N DOGAL BEXET ENJEX AVZAC INFEC JETZI AMFUL ORZEB P2 SIRIC |
| Aircraft | B77W/H-SDE1E2E3FGHIJ2J3J4J5M1RWXY/LB1D1 |
Departure
| Time | 2026-04-25 11:54 |
|---|---|
| Airport | Orlando International Airport (KMCO) |
Arrival
| Time | 2026-04-25 20:22 |
|---|---|
| Airport | London Heathrow Airport (EGLL) |
| Time | Latitude | Longitude | Altitude | Speed | Heading |
|---|---|---|---|---|---|
| 2026-04-25 11:12 | 28.42906 | -81.31547 | 106 ft | 0 kts | 193° |
| 2026-04-25 11:36 | 28.42921 | -81.31543 | 106 ft | 4 kts | 195° |
| 2026-04-25 11:36 | 28.42946 | -81.31533 | 106 ft | 4 kts | 220° |
| 2026-04-25 11:36 | 28.42955 | -81.31516 | 106 ft | 1 kts | 271° |
| 2026-04-25 11:37 | 28.42955 | -81.31511 | 106 ft | 0 kts | 271° |
| 2026-04-25 11:41 | 28.42955 | -81.31522 | 106 ft | 2 kts | 271° |
| 2026-04-25 11:42 | 28.42956 | -81.31535 | 106 ft | 2 kts | 271° |
| 2026-04-25 11:42 | 28.42954 | -81.31562 | 106 ft | 5 kts | 264° |
| 2026-04-25 11:42 | 28.42947 | -81.31616 | 106 ft | 7 kts | 258° |
| 2026-04-25 11:42 | 28.42937 | -81.31671 | 106 ft | 7 kts | 258° |
| 2026-04-25 11:43 | 28.42942 | -81.31725 | 107 ft | 5 kts | 291° |
| 2026-04-25 11:43 | 28.42943 | -81.31728 | 107 ft | 0 kts | 293° |
| 2026-04-25 11:43 | 28.42943 | -81.31729 | 107 ft | 0 kts | 293° |
| 2026-04-25 11:43 | 28.42951 | -81.31749 | 107 ft | 6 kts | 293° |
| 2026-04-25 11:44 | 28.42978 | -81.31801 | 106 ft | 8 kts | 302° |
| 2026-04-25 11:44 | 28.43009 | -81.31857 | 106 ft | 8 kts | 302° |
| 2026-04-25 11:44 | 28.43040 | -81.31913 | 107 ft | 8 kts | 302° |
| 2026-04-25 11:44 | 28.43070 | -81.31969 | 107 ft | 8 kts | 302° |
| 2026-04-25 11:45 | 28.43124 | -81.31995 | 106 ft | 10 kts | 1° |
| 2026-04-25 11:45 | 28.43200 | -81.31992 | 107 ft | 12 kts | 1° |
| 2026-04-25 11:45 | 28.43293 | -81.31995 | 107 ft | 14 kts | 357° |
| 2026-04-25 11:45 | 28.43387 | -81.31997 | 107 ft | 14 kts | 359° |
| 2026-04-25 11:46 | 28.43482 | -81.31999 | 108 ft | 14 kts | 359° |
| 2026-04-25 11:46 | 28.43577 | -81.32000 | 109 ft | 14 kts | 359° |
| 2026-04-25 11:46 | 28.43671 | -81.32000 | 109 ft | 14 kts | 0° |
| 2026-04-25 11:46 | 28.43765 | -81.32001 | 110 ft | 14 kts | 359° |
| 2026-04-25 11:47 | 28.43861 | -81.32003 | 111 ft | 14 kts | 359° |
| 2026-04-25 11:47 | 28.43954 | -81.32004 | 112 ft | 14 kts | 359° |
| 2026-04-25 11:47 | 28.44049 | -81.32005 | 112 ft | 14 kts | 359° |
| 2026-04-25 11:47 | 28.44143 | -81.32006 | 111 ft | 14 kts | 359° |
| 2026-04-25 11:48 | 28.44238 | -81.32007 | 113 ft | 14 kts | 359° |
| 2026-04-25 11:48 | 28.44333 | -81.32009 | 109 ft | 14 kts | 359° |
| 2026-04-25 11:48 | 28.44427 | -81.32010 | 110 ft | 14 kts | 359° |
| 2026-04-25 11:48 | 28.44522 | -81.32011 | 108 ft | 14 kts | 359° |
| 2026-04-25 11:49 | 28.44616 | -81.32012 | 107 ft | 12 kts | 359° |
| 2026-04-25 11:49 | 28.44696 | -81.32017 | 106 ft | 9 kts | 340° |
| 2026-04-25 11:49 | 28.44714 | -81.32070 | 107 ft | 7 kts | 272° |
| 2026-04-25 11:49 | 28.44714 | -81.32093 | 107 ft | 0 kts | 271° |
| 2026-04-25 11:51 | 28.44714 | -81.32113 | 107 ft | 5 kts | 271° |
| 2026-04-25 11:52 | 28.44715 | -81.32166 | 107 ft | 7 kts | 271° |
| 2026-04-25 11:52 | 28.44707 | -81.32216 | 108 ft | 7 kts | 232° |
| 2026-04-25 11:52 | 28.44660 | -81.32228 | 108 ft | 7 kts | 180° |
| 2026-04-25 11:52 | 28.44646 | -81.32228 | 108 ft | 0 kts | 179° |
| 2026-04-25 11:53 | 28.44639 | -81.32228 | 108 ft | 6 kts | 179° |
| 2026-04-25 11:53 | 28.44443 | -81.32224 | 109 ft | 62 kts | 179° |
| 2026-04-25 11:54 | 28.43784 | -81.32218 | 113 ft | 129 kts | 179° |
| 2026-04-25 11:54 | 28.42673 | -81.32208 | 112 ft | 186 kts | 180° |
| 2026-04-25 11:54 | 28.39956 | -81.32152 | 1089 ft | 197 kts | 185° |
| 2026-04-25 11:55 | 28.38659 | -81.32613 | 1567 ft | 199 kts | 208° |
| 2026-04-25 11:55 | 28.37414 | -81.33410 | 1846 ft | 214 kts | 208° |
| 2026-04-25 11:55 | 28.36053 | -81.34268 | 2045 ft | 233 kts | 208° |
| 2026-04-25 11:55 | 28.34636 | -81.35222 | 2426 ft | 242 kts | 219° |
| 2026-04-25 11:56 | 28.33457 | -81.36628 | 2821 ft | 250 kts | 227° |
| 2026-04-25 11:56 | 28.32294 | -81.38143 | 3330 ft | 259 kts | 228° |
| 2026-04-25 11:56 | 28.31121 | -81.39726 | 3907 ft | 263 kts | 233° |
| 2026-04-25 11:56 | 28.30323 | -81.41607 | 4367 ft | 271 kts | 257° |
| 2026-04-25 11:57 | 28.30037 | -81.43724 | 5024 ft | 273 kts | 263° |
| 2026-04-25 11:57 | 28.29805 | -81.45872 | 5660 ft | 275 kts | 263° |
| 2026-04-25 11:57 | 28.29575 | -81.48036 | 6320 ft | 276 kts | 263° |
| 2026-04-25 11:57 | 28.29398 | -81.50204 | 6885 ft | 277 kts | 272° |
| 2026-04-25 11:58 | 28.29835 | -81.52298 | 6985 ft | 279 kts | 298° |
| 2026-04-25 11:58 | 28.31070 | -81.53964 | 7018 ft | 277 kts | 326° |
| 2026-04-25 11:58 | 28.32832 | -81.54831 | 7013 ft | 279 kts | 349° |
| 2026-04-25 11:58 | 28.34758 | -81.55183 | 6991 ft | 281 kts | 352° |
| 2026-04-25 11:59 | 28.36663 | -81.55582 | 6977 ft | 277 kts | 338° |
| 2026-04-25 11:59 | 28.38318 | -81.56671 | 7024 ft | 275 kts | 324° |
| 2026-04-25 11:59 | 28.39853 | -81.57965 | 7458 ft | 276 kts | 323° |
| 2026-04-25 12:00 | 28.42489 | -81.60112 | 8281 ft | 283 kts | 335° |
| 2026-04-25 12:00 | 28.45044 | -81.60839 | 8980 ft | 284 kts | 352° |
| 2026-04-25 12:00 | 28.49008 | -81.61402 | 10094 ft | 288 kts | 355° |
| 2026-04-25 12:01 | 28.51009 | -81.61134 | 10361 ft | 298 kts | 18° |
| 2026-04-25 12:01 | 28.52973 | -81.60177 | 10526 ft | 317 kts | 24° |
| 2026-04-25 12:01 | 28.55017 | -81.59041 | 10670 ft | 337 kts | 24° |
| 2026-04-25 12:01 | 28.57199 | -81.57877 | 10836 ft | 356 kts | 23° |
| 2026-04-25 12:02 | 28.61946 | -81.55589 | 11573 ft | 381 kts | 20° |
| 2026-04-25 12:02 | 28.64435 | -81.54476 | 12182 ft | 387 kts | 19° |
| 2026-04-25 12:02 | 28.66954 | -81.53379 | 12903 ft | 389 kts | 18° |
| 2026-04-25 12:03 | 28.69494 | -81.52289 | 13621 ft | 391 kts | 18° |
| 2026-04-25 12:03 | 28.72057 | -81.51198 | 14319 ft | 395 kts | 18° |
| 2026-04-25 12:03 | 28.74639 | -81.50101 | 14998 ft | 398 kts | 18° |
| 2026-04-25 12:03 | 28.77243 | -81.48991 | 15640 ft | 401 kts | 18° |
| 2026-04-25 12:04 | 28.79863 | -81.47872 | 16129 ft | 405 kts | 18° |
| 2026-04-25 12:04 | 28.82519 | -81.46739 | 16711 ft | 409 kts | 18° |
| 2026-04-25 12:04 | 28.85191 | -81.45597 | 17387 ft | 411 kts | 18° |
| 2026-04-25 12:04 | 28.87874 | -81.44450 | 18011 ft | 413 kts | 18° |
| 2026-04-25 12:05 | 28.90547 | -81.43308 | 18597 ft | 417 kts | 17° |
| 2026-04-25 12:05 | 28.93305 | -81.42275 | 19098 ft | 419 kts | 10° |
| 2026-04-25 12:05 | 28.96179 | -81.41737 | 19598 ft | 420 kts | 2° |
| 2026-04-25 12:05 | 28.99101 | -81.41632 | 20148 ft | 420 kts | 354° |
| 2026-04-25 12:06 | 29.02013 | -81.41950 | 20672 ft | 421 kts | 351° |
| 2026-04-25 12:06 | 29.04938 | -81.42333 | 21142 ft | 426 kts | 351° |
| 2026-04-25 12:06 | 29.07908 | -81.42691 | 21622 ft | 430 kts | 352° |
| 2026-04-25 12:06 | 29.10891 | -81.43024 | 22089 ft | 433 kts | 352° |
| 2026-04-25 12:07 | 29.13907 | -81.43325 | 22564 ft | 436 kts | 353° |
| 2026-04-25 12:07 | 29.16955 | -81.43608 | 22999 ft | 440 kts | 353° |
| 2026-04-25 12:07 | 29.20019 | -81.43887 | 23424 ft | 444 kts | 353° |
| 2026-04-25 12:07 | 29.23105 | -81.44171 | 23899 ft | 445 kts | 353° |
| 2026-04-25 12:08 | 29.26153 | -81.44454 | 24870 ft | 433 kts | 353° |
| 2026-04-25 12:08 | 29.29134 | -81.44733 | 25666 ft | 428 kts | 353° |
| 2026-04-25 12:08 | 29.32105 | -81.45015 | 26140 ft | 430 kts | 353° |
| 2026-04-25 12:08 | 29.35097 | -81.45301 | 26444 ft | 435 kts | 353° |
| 2026-04-25 12:09 | 29.38126 | -81.45592 | 26784 ft | 438 kts | 353° |
| 2026-04-25 12:09 | 29.41174 | -81.45884 | 27190 ft | 440 kts | 353° |
| 2026-04-25 12:09 | 29.44233 | -81.46177 | 27608 ft | 442 kts | 353° |
| 2026-04-25 12:09 | 29.47303 | -81.46469 | 27994 ft | 444 kts | 353° |
| 2026-04-25 12:10 | 29.50358 | -81.46761 | 28296 ft | 448 kts | 353° |
| 2026-04-25 12:10 | 29.53472 | -81.47058 | 28640 ft | 450 kts | 353° |
| 2026-04-25 12:10 | 29.56584 | -81.47355 | 29144 ft | 447 kts | 353° |
| 2026-04-25 12:10 | 29.59675 | -81.47647 | 29690 ft | 444 kts | 353° |
| 2026-04-25 12:11 | 29.62736 | -81.47925 | 30345 ft | 436 kts | 354° |
| 2026-04-25 12:11 | 29.65725 | -81.48191 | 31126 ft | 426 kts | 354° |
| 2026-04-25 12:11 | 29.68670 | -81.48454 | 31616 ft | 423 kts | 354° |
| 2026-04-25 12:11 | 29.71614 | -81.48721 | 31933 ft | 424 kts | 354° |
| 2026-04-25 12:12 | 29.74554 | -81.48988 | 32201 ft | 424 kts | 354° |
| 2026-04-25 12:12 | 29.76539 | -81.49168 | 32387 ft | 424 kts | 354° |
| 2026-04-25 12:12 | 29.79478 | -81.49434 | 32720 ft | 423 kts | 354° |
| 2026-04-25 12:12 | 29.82383 | -81.49698 | 32916 ft | 426 kts | 354° |
| 2026-04-25 12:13 | 29.88336 | -81.50340 | 32958 ft | 433 kts | 349° |
| 2026-04-25 12:13 | 29.94219 | -81.52063 | 32977 ft | 441 kts | 341° |
| 2026-04-25 12:14 | 30.00118 | -81.54216 | 32976 ft | 448 kts | 341° |
| 2026-04-25 12:14 | 30.06058 | -81.56374 | 32965 ft | 446 kts | 342° |
| 2026-04-25 12:15 | 30.11972 | -81.58498 | 32976 ft | 445 kts | 342° |
| 2026-04-25 12:15 | 30.17917 | -81.60626 | 32982 ft | 448 kts | 342° |
| 2026-04-25 12:16 | 30.23838 | -81.62748 | 32977 ft | 443 kts | 342° |
| 2026-04-25 12:16 | 30.29730 | -81.64861 | 32997 ft | 444 kts | 342° |
| 2026-04-25 12:17 | 30.35650 | -81.66987 | 32970 ft | 446 kts | 342° |
| 2026-04-25 12:17 | 30.41589 | -81.69125 | 32981 ft | 451 kts | 342° |
| 2026-04-25 12:18 | 30.44562 | -81.70195 | 32867 ft | 456 kts | 342° |
| 2026-04-25 12:18 | 30.47604 | -81.71292 | 32503 ft | 459 kts | 342° |
| 2026-04-25 12:18 | 30.50673 | -81.72400 | 31974 ft | 466 kts | 342° |
| 2026-04-25 12:18 | 30.53787 | -81.73524 | 31442 ft | 472 kts | 342° |
| 2026-04-25 12:19 | 30.59051 | -81.75301 | 30986 ft | 475 kts | 348° |
| 2026-04-25 12:19 | 30.63444 | -81.75978 | 30982 ft | 476 kts | 356° |
| 2026-04-25 12:20 | 30.70069 | -81.75771 | 30969 ft | 478 kts | 5° |
| 2026-04-25 12:20 | 30.76670 | -81.74882 | 30962 ft | 478 kts | 6° |
| 2026-04-25 12:21 | 30.83270 | -81.73997 | 30961 ft | 477 kts | 5° |
| 2026-04-25 12:21 | 30.89870 | -81.73160 | 30964 ft | 476 kts | 5° |
| 2026-04-25 12:22 | 30.96457 | -81.72340 | 30971 ft | 476 kts | 5° |
| 2026-04-25 12:22 | 31.03042 | -81.71516 | 30981 ft | 475 kts | 5° |
| 2026-04-25 12:23 | 31.09617 | -81.70690 | 30976 ft | 476 kts | 5° |
| 2026-04-25 12:23 | 31.16185 | -81.69763 | 30972 ft | 476 kts | 9° |
| 2026-04-25 12:24 | 31.22583 | -81.67768 | 30980 ft | 476 kts | 16° |
| 2026-04-25 12:24 | 31.28903 | -81.65406 | 30974 ft | 476 kts | 16° |
| 2026-04-25 12:25 | 31.35171 | -81.63080 | 30970 ft | 476 kts | 16° |
| 2026-04-25 12:25 | 31.41485 | -81.60762 | 30973 ft | 475 kts | 16° |
| 2026-04-25 12:26 | 31.47788 | -81.58457 | 30972 ft | 474 kts | 16° |
| 2026-04-25 12:26 | 31.54092 | -81.56150 | 30972 ft | 474 kts | 16° |
| 2026-04-25 12:27 | 31.60395 | -81.53839 | 30970 ft | 474 kts | 16° |
| 2026-04-25 12:27 | 31.66679 | -81.51530 | 30957 ft | 473 kts | 16° |
| 2026-04-25 12:28 | 31.72976 | -81.49214 | 30952 ft | 473 kts | 16° |
| 2026-04-25 12:28 | 31.79212 | -81.46916 | 30940 ft | 473 kts | 16° |
| 2026-04-25 12:29 | 31.85493 | -81.44600 | 30943 ft | 473 kts | 16° |
| 2026-04-25 12:29 | 31.91779 | -81.42277 | 30944 ft | 473 kts | 16° |
| 2026-04-25 12:30 | 31.98061 | -81.39952 | 30935 ft | 473 kts | 16° |
| 2026-04-25 12:30 | 32.04341 | -81.37624 | 30949 ft | 473 kts | 16° |
| 2026-04-25 12:31 | 32.10627 | -81.35290 | 30936 ft | 474 kts | 16° |
| 2026-04-25 12:31 | 32.16928 | -81.32949 | 30947 ft | 475 kts | 16° |
| 2026-04-25 12:32 | 32.23233 | -81.30603 | 30956 ft | 476 kts | 16° |
| 2026-04-25 12:32 | 32.29554 | -81.28247 | 30948 ft | 476 kts | 16° |
| 2026-04-25 12:33 | 32.35875 | -81.25887 | 30947 ft | 477 kts | 16° |
| 2026-04-25 12:33 | 32.42204 | -81.23521 | 30944 ft | 477 kts | 16° |
| 2026-04-25 12:34 | 32.48293 | -81.20486 | 30947 ft | 480 kts | 27° |
| 2026-04-25 12:34 | 32.53884 | -81.16047 | 30948 ft | 483 kts | 37° |
| 2026-04-25 12:35 | 32.59070 | -81.10964 | 30937 ft | 485 kts | 38° |
| 2026-04-25 12:35 | 32.64221 | -81.05879 | 30938 ft | 485 kts | 38° |
| 2026-04-25 12:36 | 32.69433 | -81.00775 | 30941 ft | 486 kts | 38° |
| 2026-04-25 12:36 | 32.74657 | -80.95676 | 30940 ft | 486 kts | 38° |
| 2026-04-25 12:37 | 32.79888 | -80.90573 | 30949 ft | 487 kts | 38° |
| 2026-04-25 12:37 | 32.85124 | -80.85456 | 30937 ft | 488 kts | 38° |
| 2026-04-25 12:38 | 32.90370 | -80.80315 | 30938 ft | 488 kts | 38° |
| 2026-04-25 12:38 | 32.95604 | -80.75180 | 30955 ft | 488 kts | 38° |
| 2026-04-25 12:39 | 33.00839 | -80.70035 | 30952 ft | 488 kts | 38° |
| 2026-04-25 12:39 | 33.06072 | -80.64882 | 30954 ft | 488 kts | 38° |
| 2026-04-25 12:40 | 33.11310 | -80.59719 | 30936 ft | 489 kts | 38° |
| 2026-04-25 12:40 | 33.16547 | -80.54548 | 30948 ft | 488 kts | 38° |
| 2026-04-25 12:41 | 33.21781 | -80.49371 | 30932 ft | 489 kts | 38° |
| 2026-04-25 12:41 | 33.27018 | -80.44182 | 30932 ft | 489 kts | 38° |
| 2026-04-25 12:42 | 33.32249 | -80.38993 | 30935 ft | 489 kts | 39° |
| 2026-04-25 12:42 | 33.37485 | -80.33790 | 30933 ft | 488 kts | 39° |
| 2026-04-25 12:43 | 33.42676 | -80.28623 | 30936 ft | 489 kts | 39° |
| 2026-04-25 12:43 | 33.50509 | -80.20806 | 30936 ft | 489 kts | 39° |
| 2026-04-25 12:44 | 33.55735 | -80.15584 | 30949 ft | 489 kts | 39° |
| 2026-04-25 12:45 | 33.63622 | -80.07803 | 30946 ft | 489 kts | 36° |
| 2026-04-25 12:45 | 33.72493 | -80.01797 | 30948 ft | 489 kts | 26° |
| 2026-04-25 12:46 | 33.78507 | -79.98224 | 30941 ft | 490 kts | 26° |
| 2026-04-25 12:46 | 33.84604 | -79.94544 | 30947 ft | 491 kts | 27° |
| 2026-04-25 12:47 | 33.90694 | -79.90829 | 30948 ft | 491 kts | 27° |
| 2026-04-25 12:47 | 33.96788 | -79.87099 | 30943 ft | 490 kts | 27° |
| 2026-04-25 12:48 | 34.02853 | -79.83386 | 30935 ft | 490 kts | 27° |
| 2026-04-25 12:48 | 34.08943 | -79.79651 | 30934 ft | 490 kts | 27° |
| 2026-04-25 12:49 | 34.15023 | -79.75917 | 30938 ft | 490 kts | 27° |
| 2026-04-25 12:49 | 34.21099 | -79.72178 | 30933 ft | 490 kts | 27° |
| 2026-04-25 12:50 | 34.27133 | -79.68448 | 30937 ft | 490 kts | 27° |
| 2026-04-25 12:50 | 34.33201 | -79.64690 | 30934 ft | 490 kts | 27° |
| 2026-04-25 12:51 | 34.39266 | -79.60932 | 30935 ft | 490 kts | 27° |
| 2026-04-25 12:51 | 34.45336 | -79.57168 | 30934 ft | 490 kts | 27° |
| 2026-04-25 12:52 | 34.51409 | -79.53398 | 30939 ft | 490 kts | 27° |
| 2026-04-25 12:52 | 34.57475 | -79.49577 | 30931 ft | 491 kts | 28° |
| 2026-04-25 12:53 | 34.63437 | -79.45520 | 30935 ft | 491 kts | 29° |
| 2026-04-25 12:53 | 34.69406 | -79.41465 | 30934 ft | 491 kts | 28° |
| 2026-04-25 12:54 | 34.75385 | -79.37432 | 30937 ft | 491 kts | 28° |
| 2026-04-25 12:54 | 34.81360 | -79.33388 | 30934 ft | 492 kts | 28° |
| 2026-04-25 12:55 | 34.85314 | -79.30705 | 30935 ft | 491 kts | 28° |
| 2026-04-25 12:55 | 34.93280 | -79.25291 | 30930 ft | 492 kts | 28° |
| 2026-04-25 12:56 | 34.99261 | -79.21219 | 30922 ft | 493 kts | 28° |
| 2026-04-25 12:56 | 35.05240 | -79.17143 | 30922 ft | 493 kts | 28° |
| 2026-04-25 12:57 | 35.11218 | -79.13061 | 30923 ft | 492 kts | 28° |
| 2026-04-25 12:57 | 35.16196 | -79.09654 | 30917 ft | 493 kts | 28° |
| 2026-04-25 12:58 | 35.22177 | -79.05556 | 30907 ft | 493 kts | 28° |
| 2026-04-25 12:58 | 35.28155 | -79.01454 | 30907 ft | 492 kts | 28° |
| 2026-04-25 12:59 | 35.34034 | -78.97411 | 30917 ft | 492 kts | 28° |
| 2026-04-25 12:59 | 35.40002 | -78.93301 | 30915 ft | 492 kts | 28° |
| 2026-04-25 13:00 | 35.44953 | -78.89885 | 30923 ft | 492 kts | 28° |
| 2026-04-25 13:00 | 35.51923 | -78.85061 | 30927 ft | 492 kts | 28° |
| 2026-04-25 13:01 | 35.57888 | -78.80924 | 30928 ft | 492 kts | 28° |
| 2026-04-25 13:01 | 35.63818 | -78.76811 | 30924 ft | 492 kts | 28° |
| 2026-04-25 13:02 | 35.69783 | -78.72677 | 30926 ft | 492 kts | 28° |
| 2026-04-25 13:02 | 35.75755 | -78.68530 | 30921 ft | 492 kts | 28° |
| 2026-04-25 13:03 | 35.81721 | -78.64382 | 30917 ft | 492 kts | 28° |
| 2026-04-25 13:03 | 35.87695 | -78.60219 | 31292 ft | 493 kts | 28° |
| 2026-04-25 13:04 | 35.90669 | -78.58141 | 31688 ft | 490 kts | 28° |
| 2026-04-25 13:04 | 35.93630 | -78.56072 | 32075 ft | 487 kts | 27° |
| 2026-04-25 13:04 | 35.96572 | -78.54016 | 32412 ft | 485 kts | 27° |
| 2026-04-25 13:04 | 35.99504 | -78.51964 | 32698 ft | 484 kts | 27° |
| 2026-04-25 13:05 | 36.02419 | -78.49922 | 32854 ft | 485 kts | 27° |
| 2026-04-25 13:05 | 36.05367 | -78.47857 | 32883 ft | 486 kts | 27° |
| 2026-04-25 13:05 | 36.11251 | -78.43727 | 32902 ft | 485 kts | 27° |
| 2026-04-25 13:06 | 36.17056 | -78.39645 | 32910 ft | 482 kts | 27° |
| 2026-04-25 13:06 | 36.22908 | -78.35522 | 32917 ft | 480 kts | 27° |
| 2026-04-25 13:07 | 36.28677 | -78.31453 | 32920 ft | 480 kts | 27° |
| 2026-04-25 13:07 | 36.34483 | -78.27351 | 32921 ft | 481 kts | 27° |
| 2026-04-25 13:08 | 36.40546 | -78.23909 | 32917 ft | 478 kts | 15° |
| 2026-04-25 13:08 | 36.46942 | -78.21594 | 32923 ft | 479 kts | 13° |
| 2026-04-25 13:09 | 36.53369 | -78.19341 | 32920 ft | 481 kts | 13° |
| 2026-04-25 13:09 | 36.59810 | -78.17038 | 32921 ft | 482 kts | 13° |
| 2026-04-25 13:10 | 36.66260 | -78.14697 | 32928 ft | 482 kts | 13° |
| 2026-04-25 13:10 | 36.72694 | -78.12351 | 32936 ft | 482 kts | 13° |
| 2026-04-25 13:11 | 36.79128 | -78.10002 | 32934 ft | 481 kts | 13° |
| 2026-04-25 13:11 | 36.85554 | -78.07654 | 32924 ft | 481 kts | 13° |
| 2026-04-25 13:12 | 36.91978 | -78.05303 | 32910 ft | 481 kts | 13° |
| 2026-04-25 13:12 | 36.97318 | -78.03347 | 32895 ft | 481 kts | 13° |
| 2026-04-25 13:13 | 37.04769 | -78.00611 | 32884 ft | 480 kts | 13° |
| 2026-04-25 13:13 | 37.11081 | -77.98288 | 32886 ft | 480 kts | 12° |
| 2026-04-25 13:14 | 37.17487 | -77.95927 | 32878 ft | 478 kts | 12° |
| 2026-04-25 13:14 | 37.23865 | -77.93572 | 32899 ft | 477 kts | 12° |
| 2026-04-25 13:15 | 37.30226 | -77.91221 | 32895 ft | 476 kts | 12° |
| 2026-04-25 13:15 | 37.36579 | -77.88867 | 32903 ft | 476 kts | 12° |
| 2026-04-25 13:16 | 37.42935 | -77.86508 | 32910 ft | 476 kts | 12° |
| 2026-04-25 13:16 | 37.49298 | -77.84142 | 32923 ft | 478 kts | 12° |
| 2026-04-25 13:17 | 37.55625 | -77.81481 | 32917 ft | 482 kts | 17° |
| 2026-04-25 13:17 | 37.61824 | -77.78206 | 32919 ft | 484 kts | 18° |
| 2026-04-25 13:18 | 37.68026 | -77.74888 | 32916 ft | 485 kts | 18° |
| 2026-04-25 13:18 | 37.74243 | -77.71594 | 32924 ft | 484 kts | 18° |
| 2026-04-25 13:19 | 37.80470 | -77.68310 | 32926 ft | 484 kts | 18° |
| 2026-04-25 13:19 | 37.85638 | -77.65585 | 32926 ft | 484 kts | 18° |
| 2026-04-25 13:20 | 37.92861 | -77.61766 | 32929 ft | 484 kts | 18° |
| 2026-04-25 13:20 | 37.99089 | -77.58464 | 32922 ft | 484 kts | 18° |
| 2026-04-25 13:21 | 38.05292 | -77.55169 | 32923 ft | 483 kts | 18° |
| 2026-04-25 13:21 | 38.11489 | -77.51872 | 32928 ft | 483 kts | 17° |
| 2026-04-25 13:22 | 38.17649 | -77.48589 | 32925 ft | 483 kts | 17° |
| 2026-04-25 13:23 | 38.26946 | -77.43621 | 32926 ft | 483 kts | 17° |
| 2026-04-25 13:23 | 38.33145 | -77.40302 | 32929 ft | 483 kts | 17° |
| 2026-04-25 13:24 | 38.39214 | -77.36535 | 32936 ft | 491 kts | 28° |
| 2026-04-25 13:24 | 38.44514 | -77.30938 | 32949 ft | 502 kts | 42° |
| 2026-04-25 13:25 | 38.49130 | -77.24221 | 32960 ft | 503 kts | 44° |
| 2026-04-25 13:25 | 38.53676 | -77.17494 | 32959 ft | 504 kts | 44° |
| 2026-04-25 13:26 | 38.58294 | -77.10765 | 32964 ft | 503 kts | 43° |
| 2026-04-25 13:26 | 38.62929 | -77.04053 | 32954 ft | 503 kts | 43° |
| 2026-04-25 13:27 | 38.67487 | -76.97438 | 32946 ft | 503 kts | 43° |
| 2026-04-25 13:27 | 38.72106 | -76.90714 | 32951 ft | 502 kts | 43° |
| 2026-04-25 13:28 | 38.76716 | -76.83991 | 32949 ft | 502 kts | 43° |
| 2026-04-25 13:28 | 38.81318 | -76.77257 | 32942 ft | 502 kts | 43° |
| 2026-04-25 13:29 | 38.85910 | -76.70526 | 32954 ft | 501 kts | 43° |
| 2026-04-25 13:29 | 38.90490 | -76.63793 | 32974 ft | 501 kts | 43° |
| 2026-04-25 13:30 | 38.97356 | -76.53671 | 32997 ft | 501 kts | 43° |
| 2026-04-25 13:31 | 39.04217 | -76.43532 | 32990 ft | 501 kts | 43° |
| 2026-04-25 13:31 | 39.08791 | -76.36749 | 32994 ft | 502 kts | 43° |
| 2026-04-25 13:32 | 39.13365 | -76.29954 | 32998 ft | 502 kts | 43° |
| 2026-04-25 13:32 | 39.17908 | -76.23191 | 32995 ft | 502 kts | 43° |
| 2026-04-25 13:33 | 39.22477 | -76.16370 | 32983 ft | 502 kts | 43° |
| 2026-04-25 13:33 | 39.27053 | -76.09541 | 32942 ft | 503 kts | 43° |
| 2026-04-25 13:34 | 39.31633 | -76.02700 | 32926 ft | 503 kts | 43° |
| 2026-04-25 13:34 | 39.36132 | -75.95969 | 32929 ft | 503 kts | 43° |
| 2026-04-25 13:35 | 39.40694 | -75.89129 | 32938 ft | 501 kts | 43° |
| 2026-04-25 13:35 | 39.45233 | -75.82305 | 32954 ft | 500 kts | 43° |
| 2026-04-25 13:36 | 39.49764 | -75.75479 | 32967 ft | 499 kts | 43° |
| 2026-04-25 13:36 | 39.54283 | -75.68658 | 32996 ft | 499 kts | 43° |
| 2026-04-25 13:37 | 39.58800 | -75.61824 | 33016 ft | 498 kts | 43° |
| 2026-04-25 13:37 | 39.63313 | -75.54981 | 33026 ft | 499 kts | 43° |
| 2026-04-25 13:38 | 39.67704 | -75.47965 | 33036 ft | 503 kts | 47° |
| 2026-04-25 13:38 | 39.71829 | -75.40582 | 33035 ft | 505 kts | 47° |
| 2026-04-25 13:39 | 39.75942 | -75.33259 | 33064 ft | 506 kts | 47° |
| 2026-04-25 13:39 | 39.80084 | -75.25786 | 33053 ft | 506 kts | 48° |
| 2026-04-25 13:40 | 39.84180 | -75.18344 | 33057 ft | 505 kts | 47° |
| 2026-04-25 13:40 | 39.88265 | -75.10985 | 33057 ft | 504 kts | 47° |
| 2026-04-25 13:41 | 39.92370 | -75.03592 | 33056 ft | 503 kts | 47° |
| 2026-04-25 13:41 | 39.96396 | -74.96317 | 33065 ft | 502 kts | 47° |
| 2026-04-25 13:42 | 40.00360 | -74.88822 | 33066 ft | 504 kts | 49° |
| 2026-04-25 13:42 | 40.04194 | -74.81172 | 33066 ft | 503 kts | 49° |
| 2026-04-25 13:43 | 40.07389 | -74.74823 | 33064 ft | 503 kts | 48° |
| 2026-04-25 13:43 | 40.11246 | -74.67218 | 33067 ft | 502 kts | 48° |
| 2026-04-25 13:44 | 40.15106 | -74.59598 | 33060 ft | 502 kts | 48° |
| 2026-04-25 13:44 | 40.19042 | -74.52092 | 33071 ft | 495 kts | 43° |
| 2026-04-25 13:45 | 40.23703 | -74.45628 | 33076 ft | 482 kts | 32° |
| 2026-04-25 13:45 | 40.28886 | -74.40128 | 33082 ft | 479 kts | 30° |
| 2026-04-25 13:46 | 40.34085 | -74.34667 | 33086 ft | 479 kts | 30° |
| 2026-04-25 13:46 | 40.39230 | -74.29183 | 33091 ft | 480 kts | 30° |
| 2026-04-25 13:47 | 40.44393 | -74.23638 | 33106 ft | 479 kts | 30° |
| 2026-04-25 13:47 | 40.49563 | -74.18075 | 33113 ft | 480 kts | 31° |
| 2026-04-25 13:48 | 40.54733 | -74.12509 | 33111 ft | 480 kts | 31° |
| 2026-04-25 13:48 | 40.59899 | -74.06938 | 33110 ft | 480 kts | 31° |
| 2026-04-25 13:49 | 40.65035 | -74.01392 | 33116 ft | 480 kts | 31° |
| 2026-04-25 13:49 | 40.70124 | -73.95885 | 33129 ft | 480 kts | 30° |
| 2026-04-25 13:50 | 40.75271 | -73.90300 | 33117 ft | 477 kts | 30° |
| 2026-04-25 13:50 | 40.80391 | -73.84739 | 33101 ft | 475 kts | 30° |
| 2026-04-25 13:51 | 40.85641 | -73.79576 | 33099 ft | 462 kts | 21° |
| 2026-04-25 13:51 | 40.91298 | -73.75820 | 33102 ft | 448 kts | 12° |
| 2026-04-25 13:52 | 40.97098 | -73.73068 | 33114 ft | 445 kts | 11° |
| 2026-04-25 13:52 | 41.02929 | -73.70338 | 33114 ft | 446 kts | 11° |
| 2026-04-25 13:53 | 41.08779 | -73.67552 | 33111 ft | 447 kts | 11° |
| 2026-04-25 13:53 | 41.14639 | -73.64736 | 33116 ft | 448 kts | 11° |
| 2026-04-25 13:54 | 41.20508 | -73.61909 | 33116 ft | 449 kts | 11° |
| 2026-04-25 13:54 | 41.26393 | -73.59154 | 33125 ft | 445 kts | 7° |
| 2026-04-25 13:55 | 41.32374 | -73.57486 | 33124 ft | 434 kts | 359° |
| 2026-04-25 13:55 | 41.38367 | -73.56699 | 33129 ft | 433 kts | 358° |
| 2026-04-25 13:56 | 41.44367 | -73.55921 | 33128 ft | 433 kts | 358° |
| 2026-04-25 13:56 | 41.50367 | -73.55123 | 33130 ft | 434 kts | 358° |
| 2026-04-25 13:57 | 41.56368 | -73.54312 | 33129 ft | 434 kts | 358° |
| 2026-04-25 13:57 | 41.62382 | -73.53492 | 33122 ft | 434 kts | 358° |
| 2026-04-25 13:58 | 41.68393 | -73.52665 | 33118 ft | 434 kts | 358° |
| 2026-04-25 13:58 | 41.74400 | -73.51846 | 33110 ft | 434 kts | 358° |
| 2026-04-25 13:59 | 41.80431 | -73.51024 | 33113 ft | 435 kts | 358° |
| 2026-04-25 13:59 | 41.86450 | -73.50199 | 33104 ft | 435 kts | 358° |
| 2026-04-25 14:00 | 41.91447 | -73.49519 | 33106 ft | 434 kts | 358° |
| 2026-04-25 14:00 | 41.98430 | -73.48549 | 33094 ft | 434 kts | 358° |
| 2026-04-25 14:01 | 42.04433 | -73.47719 | 33109 ft | 433 kts | 358° |
| 2026-04-25 14:01 | 42.10424 | -73.46897 | 33106 ft | 432 kts | 358° |
| 2026-04-25 14:02 | 42.16414 | -73.46065 | 33084 ft | 432 kts | 358° |
| 2026-04-25 14:02 | 42.22393 | -73.45236 | 33090 ft | 431 kts | 358° |
| 2026-04-25 14:03 | 42.28362 | -73.44400 | 33096 ft | 431 kts | 358° |
| 2026-04-25 14:03 | 42.34322 | -73.43569 | 33090 ft | 431 kts | 358° |
| 2026-04-25 14:04 | 42.40286 | -73.42738 | 33087 ft | 431 kts | 358° |
| 2026-04-25 14:04 | 42.46259 | -73.41900 | 33085 ft | 431 kts | 358° |
| 2026-04-25 14:05 | 42.52225 | -73.41071 | 33086 ft | 430 kts | 358° |
| 2026-04-25 14:05 | 42.58176 | -73.40234 | 33090 ft | 429 kts | 358° |
| 2026-04-25 14:06 | 42.64064 | -73.39403 | 33085 ft | 427 kts | 358° |
| 2026-04-25 14:06 | 42.69957 | -73.38576 | 33084 ft | 425 kts | 358° |
| 2026-04-25 14:07 | 42.75828 | -73.37755 | 33102 ft | 424 kts | 358° |
| 2026-04-25 14:07 | 42.81696 | -73.36911 | 33108 ft | 424 kts | 358° |
| 2026-04-25 14:08 | 42.87581 | -73.36077 | 33088 ft | 426 kts | 358° |
| 2026-04-25 14:08 | 42.93469 | -73.35244 | 33098 ft | 426 kts | 358° |
| 2026-04-25 14:09 | 42.99366 | -73.34406 | 33082 ft | 426 kts | 358° |
| 2026-04-25 14:09 | 43.05240 | -73.33733 | 33096 ft | 423 kts | 356° |
| 2026-04-25 14:10 | 43.11106 | -73.33156 | 33098 ft | 423 kts | 356° |
| 2026-04-25 14:10 | 43.16975 | -73.32565 | 33104 ft | 423 kts | 356° |
| 2026-04-25 14:11 | 43.22851 | -73.31962 | 33100 ft | 423 kts | 356° |
| 2026-04-25 14:11 | 43.28724 | -73.31349 | 33106 ft | 424 kts | 356° |
| 2026-04-25 14:12 | 43.34608 | -73.30732 | 33101 ft | 423 kts | 356° |
| 2026-04-25 14:12 | 43.40469 | -73.30118 | 33114 ft | 423 kts | 356° |
| 2026-04-25 14:13 | 43.46334 | -73.29498 | 33113 ft | 422 kts | 356° |
| 2026-04-25 14:13 | 43.52191 | -73.28881 | 33104 ft | 422 kts | 356° |
| 2026-04-25 14:14 | 43.58028 | -73.28266 | 33110 ft | 421 kts | 356° |
| 2026-04-25 14:14 | 43.63869 | -73.27649 | 33110 ft | 421 kts | 356° |
| 2026-04-25 14:15 | 43.69711 | -73.27031 | 33116 ft | 421 kts | 356° |
| 2026-04-25 14:15 | 43.75549 | -73.26411 | 33109 ft | 421 kts | 356° |
| 2026-04-25 14:16 | 43.81394 | -73.25789 | 33112 ft | 421 kts | 356° |
| 2026-04-25 14:16 | 43.87240 | -73.25165 | 33111 ft | 421 kts | 356° |
| 2026-04-25 14:17 | 43.93087 | -73.24540 | 33116 ft | 421 kts | 356° |
| 2026-04-25 14:17 | 43.98886 | -73.23707 | 33102 ft | 430 kts | 6° |
| 2026-04-25 14:17 | 44.01732 | -73.22073 | 33122 ft | 449 kts | 19° |
| 2026-04-25 14:18 | 44.04336 | -73.19655 | 33108 ft | 465 kts | 28° |
| 2026-04-25 14:18 | 44.06642 | -73.16378 | 33104 ft | 485 kts | 42° |
| 2026-04-25 14:18 | 44.08607 | -73.12527 | 33122 ft | 490 kts | 45° |
| 2026-04-25 14:19 | 44.12391 | -73.04583 | 33124 ft | 494 kts | 46° |
| 2026-04-25 14:19 | 44.16130 | -72.96752 | 33106 ft | 492 kts | 45° |
| 2026-04-25 14:20 | 44.19974 | -72.88881 | 33123 ft | 490 kts | 44° |
| 2026-04-25 14:20 | 44.23834 | -72.81053 | 33141 ft | 488 kts | 44° |
| 2026-04-25 14:21 | 44.27670 | -72.73266 | 33152 ft | 486 kts | 44° |
| 2026-04-25 14:21 | 44.31485 | -72.65492 | 33147 ft | 485 kts | 44° |
| 2026-04-25 14:22 | 44.35290 | -72.57720 | 33144 ft | 484 kts | 44° |
| 2026-04-25 14:22 | 44.39083 | -72.49938 | 33143 ft | 484 kts | 44° |
| 2026-04-25 14:23 | 44.42865 | -72.42155 | 33137 ft | 484 kts | 44° |
| 2026-04-25 14:23 | 44.46642 | -72.34367 | 33133 ft | 484 kts | 44° |
| 2026-04-25 14:24 | 44.50417 | -72.26568 | 33137 ft | 484 kts | 44° |
| 2026-04-25 14:24 | 44.54188 | -72.18752 | 33139 ft | 484 kts | 44° |
| 2026-04-25 14:25 | 44.57953 | -72.10923 | 33142 ft | 484 kts | 44° |
| 2026-04-25 14:25 | 44.61714 | -72.03084 | 33145 ft | 484 kts | 44° |
| 2026-04-25 14:26 | 44.65407 | -71.95365 | 33149 ft | 484 kts | 45° |
| 2026-04-25 14:26 | 44.69154 | -71.87515 | 33148 ft | 484 kts | 45° |
| 2026-04-25 14:27 | 44.72879 | -71.79687 | 33168 ft | 485 kts | 45° |
| 2026-04-25 14:27 | 44.76626 | -71.71792 | 33139 ft | 486 kts | 45° |
| 2026-04-25 14:28 | 44.80378 | -71.63866 | 33147 ft | 486 kts | 46° |
| 2026-04-25 14:28 | 44.84121 | -71.55930 | 33147 ft | 486 kts | 46° |
| 2026-04-25 14:29 | 44.87857 | -71.47993 | 33129 ft | 487 kts | 46° |
| 2026-04-25 14:29 | 44.90987 | -71.41327 | 33131 ft | 487 kts | 46° |
| 2026-04-25 14:30 | 44.94718 | -71.33359 | 33118 ft | 487 kts | 47° |
| 2026-04-25 14:30 | 45.00273 | -71.21450 | 33137 ft | 486 kts | 47° |
| 2026-04-25 14:31 | 45.03991 | -71.13457 | 33135 ft | 487 kts | 47° |
| 2026-04-25 14:31 | 45.07702 | -71.05456 | 33128 ft | 486 kts | 48° |
| 2026-04-25 14:32 | 45.11488 | -70.97786 | 33124 ft | 478 kts | 41° |
| 2026-04-25 14:32 | 45.15944 | -70.90914 | 33123 ft | 473 kts | 38° |
| 2026-04-25 14:33 | 45.20463 | -70.84129 | 33123 ft | 473 kts | 38° |
| 2026-04-25 14:33 | 45.24959 | -70.77303 | 33125 ft | 474 kts | 39° |
| 2026-04-25 14:34 | 45.29440 | -70.70432 | 33119 ft | 474 kts | 39° |
| 2026-04-25 14:34 | 45.33918 | -70.63532 | 33119 ft | 475 kts | 40° |
| 2026-04-25 14:35 | 45.38389 | -70.56627 | 33118 ft | 475 kts | 40° |
| 2026-04-25 14:35 | 45.42859 | -70.49703 | 33123 ft | 475 kts | 40° |
| 2026-04-25 14:36 | 45.47328 | -70.42766 | 33126 ft | 475 kts | 41° |
| 2026-04-25 14:36 | 45.51792 | -70.35824 | 33119 ft | 475 kts | 41° |
| 2026-04-25 14:37 | 45.56254 | -70.28865 | 33111 ft | 475 kts | 41° |
| 2026-04-25 14:37 | 45.60704 | -70.21905 | 33103 ft | 475 kts | 42° |
| 2026-04-25 14:38 | 45.65161 | -70.14919 | 33101 ft | 476 kts | 42° |
| 2026-04-25 14:38 | 45.69619 | -70.07915 | 33112 ft | 478 kts | 42° |
| 2026-04-25 14:39 | 45.74102 | -70.00861 | 33112 ft | 485 kts | 43° |
| 2026-04-25 14:39 | 45.78600 | -69.93754 | 33102 ft | 488 kts | 43° |
| 2026-04-25 14:40 | 45.83125 | -69.86581 | 33097 ft | 488 kts | 43° |
| 2026-04-25 14:40 | 45.87675 | -69.79350 | 33104 ft | 488 kts | 43° |
| 2026-04-25 14:41 | 45.92208 | -69.72130 | 33096 ft | 486 kts | 43° |
| 2026-04-25 14:41 | 45.96726 | -69.64917 | 33094 ft | 485 kts | 43° |
| 2026-04-25 14:42 | 46.00491 | -69.58893 | 33103 ft | 483 kts | 43° |
| 2026-04-25 14:42 | 46.05704 | -69.50528 | 33103 ft | 482 kts | 44° |
| 2026-04-25 14:43 | 46.10166 | -69.43347 | 33120 ft | 481 kts | 44° |
| 2026-04-25 14:43 | 46.14627 | -69.36152 | 33119 ft | 481 kts | 44° |
| 2026-04-25 14:44 | 46.19086 | -69.28942 | 33121 ft | 481 kts | 44° |
| 2026-04-25 14:44 | 46.23541 | -69.21718 | 33122 ft | 482 kts | 45° |
| 2026-04-25 14:45 | 46.27989 | -69.14486 | 33119 ft | 482 kts | 45° |
| 2026-04-25 14:45 | 46.32434 | -69.07236 | 33118 ft | 481 kts | 45° |
| 2026-04-25 14:46 | 46.36868 | -68.99988 | 33121 ft | 481 kts | 46° |
| 2026-04-25 14:46 | 46.41226 | -68.92846 | 33117 ft | 480 kts | 46° |
| 2026-04-25 14:47 | 46.44930 | -68.86760 | 33124 ft | 480 kts | 46° |
| 2026-04-25 14:47 | 46.50057 | -68.78315 | 33116 ft | 480 kts | 46° |
| 2026-04-25 14:48 | 46.54462 | -68.71034 | 33124 ft | 480 kts | 46° |
| 2026-04-25 14:48 | 46.58860 | -68.63745 | 33116 ft | 480 kts | 46° |
| 2026-04-25 14:49 | 46.63255 | -68.56445 | 33108 ft | 479 kts | 46° |
| 2026-04-25 14:49 | 46.67641 | -68.49145 | 33112 ft | 479 kts | 47° |
| 2026-04-25 14:50 | 46.72019 | -68.41827 | 33105 ft | 479 kts | 47° |
| 2026-04-25 14:50 | 46.76389 | -68.34512 | 33101 ft | 479 kts | 47° |
| 2026-04-25 14:51 | 46.80756 | -68.27181 | 33104 ft | 478 kts | 47° |
| 2026-04-25 14:51 | 46.85114 | -68.19842 | 33102 ft | 477 kts | 47° |
| 2026-04-25 14:52 | 46.89458 | -68.12510 | 33097 ft | 477 kts | 47° |
| 2026-04-25 14:52 | 46.93065 | -68.06404 | 33090 ft | 477 kts | 47° |
| 2026-04-25 14:53 | 46.98051 | -67.97944 | 33091 ft | 475 kts | 48° |
| 2026-04-25 14:53 | 47.02356 | -67.90618 | 33091 ft | 474 kts | 48° |
| 2026-04-25 14:54 | 47.06653 | -67.83285 | 33099 ft | 473 kts | 48° |
| 2026-04-25 14:54 | 47.10933 | -67.75962 | 33088 ft | 473 kts | 49° |
| 2026-04-25 14:55 | 47.15205 | -67.68632 | 33092 ft | 472 kts | 49° |
| 2026-04-25 14:55 | 47.19462 | -67.61309 | 33094 ft | 471 kts | 49° |
| 2026-04-25 14:56 | 47.23712 | -67.53978 | 33090 ft | 471 kts | 49° |
| 2026-04-25 14:56 | 47.27954 | -67.46640 | 33095 ft | 470 kts | 49° |
| 2026-04-25 14:57 | 47.32188 | -67.39295 | 33092 ft | 470 kts | 49° |
| 2026-04-25 14:57 | 47.36416 | -67.31948 | 33095 ft | 470 kts | 49° |
| 2026-04-25 14:58 | 47.40568 | -67.24499 | 33092 ft | 470 kts | 51° |
| 2026-04-25 14:58 | 47.44617 | -67.16903 | 33093 ft | 471 kts | 51° |
| 2026-04-25 14:59 | 47.48658 | -67.09286 | 33092 ft | 471 kts | 51° |
| 2026-04-25 14:59 | 47.52714 | -67.01663 | 33094 ft | 471 kts | 51° |
| 2026-04-25 15:00 | 47.56679 | -66.94218 | 33094 ft | 472 kts | 51° |
| 2026-04-25 15:00 | 47.60755 | -66.86552 | 33100 ft | 476 kts | 51° |
| 2026-04-25 15:01 | 47.64863 | -66.78798 | 33098 ft | 481 kts | 51° |
| 2026-04-25 15:01 | 47.69007 | -66.70953 | 33088 ft | 485 kts | 51° |
| 2026-04-25 15:02 | 47.73170 | -66.63051 | 33084 ft | 486 kts | 51° |
| 2026-04-25 15:02 | 47.77340 | -66.55114 | 33082 ft | 487 kts | 52° |
| 2026-04-25 15:03 | 47.81495 | -66.47178 | 33082 ft | 486 kts | 52° |
| 2026-04-25 15:03 | 47.85630 | -66.39257 | 33079 ft | 484 kts | 52° |
| 2026-04-25 15:04 | 47.89751 | -66.31341 | 33081 ft | 483 kts | 52° |
| 2026-04-25 15:04 | 47.93858 | -66.23426 | 33084 ft | 482 kts | 52° |
| 2026-04-25 15:05 | 47.97953 | -66.15514 | 33074 ft | 482 kts | 52° |
| 2026-04-25 15:06 | 48.04091 | -66.03614 | 33076 ft | 483 kts | 52° |
| 2026-04-25 15:06 | 48.08118 | -65.95774 | 33077 ft | 483 kts | 52° |
| 2026-04-25 15:07 | 48.12205 | -65.87796 | 33072 ft | 483 kts | 52° |
| 2026-04-25 15:07 | 48.16288 | -65.79804 | 33072 ft | 483 kts | 52° |
| 2026-04-25 15:08 | 48.20363 | -65.71806 | 33064 ft | 483 kts | 52° |
| 2026-04-25 15:08 | 48.24432 | -65.63793 | 33063 ft | 483 kts | 52° |
| 2026-04-25 15:09 | 48.28494 | -65.55771 | 33065 ft | 482 kts | 52° |
| 2026-04-25 15:09 | 48.34560 | -65.43747 | 33055 ft | 481 kts | 52° |
| 2026-04-25 15:10 | 48.38591 | -65.35726 | 33056 ft | 480 kts | 52° |
| 2026-04-25 15:10 | 48.42599 | -65.27729 | 32844 ft | 479 kts | 53° |
| 2026-04-25 15:11 | 48.44608 | -65.23723 | 32709 ft | 479 kts | 53° |
| 2026-04-25 15:11 | 48.48634 | -65.15670 | 32702 ft | 484 kts | 52° |
| 2026-04-25 15:12 | 48.54744 | -65.03351 | 32698 ft | 493 kts | 53° |
| 2026-04-25 15:12 | 48.57435 | -64.97911 | 32702 ft | 496 kts | 53° |
| 2026-04-25 15:13 | 48.64326 | -64.83952 | 32696 ft | 495 kts | 53° |
| 2026-04-25 15:13 | 48.66351 | -64.79833 | 32611 ft | 481 kts | 53° |
| 2026-04-25 15:14 | 48.68318 | -64.75827 | 32541 ft | 468 kts | 53° |
| 2026-04-25 15:14 | 48.72173 | -64.67957 | 32396 ft | 463 kts | 52° |
| 2026-04-25 15:15 | 48.76000 | -64.60128 | 32240 ft | 462 kts | 51° |
| 2026-04-25 15:15 | 48.79831 | -64.52268 | 32121 ft | 465 kts | 51° |
| 2026-04-25 15:16 | 48.83671 | -64.44367 | 32044 ft | 467 kts | 52° |
| 2026-04-25 15:16 | 48.89490 | -64.32348 | 32041 ft | 473 kts | 52° |
| 2026-04-25 15:17 | 48.95336 | -64.20213 | 32035 ft | 474 kts | 52° |
| 2026-04-25 15:18 | 48.99221 | -64.12119 | 32038 ft | 473 kts | 52° |
| 2026-04-25 15:18 | 49.05004 | -64.00027 | 32036 ft | 471 kts | 52° |
| 2026-04-25 15:19 | 49.08140 | -63.93446 | 32038 ft | 469 kts | 52° |
| 2026-04-25 15:19 | 49.12614 | -63.84032 | 32035 ft | 468 kts | 51° |
| 2026-04-25 15:20 | 49.16429 | -63.75981 | 32027 ft | 468 kts | 52° |
| 2026-04-25 15:20 | 49.20229 | -63.67928 | 32028 ft | 467 kts | 52° |
| 2026-04-25 15:21 | 49.24025 | -63.59865 | 32028 ft | 467 kts | 52° |
| 2026-04-25 15:21 | 49.27817 | -63.51786 | 32016 ft | 468 kts | 52° |
| 2026-04-25 15:22 | 49.31610 | -63.43681 | 32006 ft | 468 kts | 52° |
| 2026-04-25 15:22 | 49.35400 | -63.35559 | 31999 ft | 468 kts | 52° |
| 2026-04-25 15:23 | 49.39181 | -63.27430 | 32003 ft | 468 kts | 52° |
| 2026-04-25 15:23 | 49.42955 | -63.19292 | 31985 ft | 468 kts | 52° |
| 2026-04-25 15:24 | 49.46700 | -63.11189 | 31999 ft | 468 kts | 52° |
| 2026-04-25 15:24 | 49.49851 | -63.04351 | 31988 ft | 467 kts | 52° |
| 2026-04-25 15:25 | 49.54145 | -62.95008 | 31993 ft | 467 kts | 52° |
| 2026-04-25 15:25 | 49.57887 | -62.86843 | 31980 ft | 466 kts | 52° |
| 2026-04-25 15:26 | 49.61616 | -62.78676 | 31982 ft | 466 kts | 51° |
| 2026-04-25 15:26 | 49.65342 | -62.70489 | 31986 ft | 469 kts | 51° |
| 2026-04-25 15:27 | 49.69110 | -62.62194 | 31977 ft | 474 kts | 52° |
| 2026-04-25 15:28 | 49.74818 | -62.49570 | 31968 ft | 479 kts | 51° |
| 2026-04-25 15:28 | 49.78621 | -62.41121 | 31957 ft | 479 kts | 52° |
| 2026-04-25 15:29 | 49.82417 | -62.32660 | 31951 ft | 478 kts | 51° |
| 2026-04-25 15:29 | 49.86200 | -62.24205 | 31929 ft | 477 kts | 51° |
| 2026-04-25 15:30 | 49.89965 | -62.15760 | 31931 ft | 475 kts | 52° |
| 2026-04-25 15:30 | 49.93711 | -62.07337 | 31919 ft | 474 kts | 51° |
| 2026-04-25 15:31 | 49.97384 | -61.99051 | 31913 ft | 473 kts | 52° |
| 2026-04-25 15:31 | 50.01071 | -61.90705 | 31920 ft | 472 kts | 52° |
| 2026-04-25 15:32 | 50.04784 | -61.82276 | 31914 ft | 472 kts | 52° |
| 2026-04-25 15:32 | 50.08446 | -61.73925 | 31895 ft | 461 kts | 52° |
| 2026-04-25 15:33 | 50.13853 | -61.61563 | 31911 ft | 461 kts | 52° |
| 2026-04-25 15:33 | 50.17463 | -61.53280 | 31907 ft | 462 kts | 52° |
| 2026-04-25 15:34 | 50.21067 | -61.44979 | 31912 ft | 462 kts | 52° |
| 2026-04-25 15:34 | 50.24080 | -61.38019 | 31910 ft | 461 kts | 52° |
| 2026-04-25 15:35 | 50.30039 | -61.24200 | 31913 ft | 460 kts | 53° |
| 2026-04-25 15:36 | 50.35395 | -61.11718 | 31908 ft | 460 kts | 53° |
| 2026-04-25 15:36 | 50.38958 | -61.03382 | 31910 ft | 460 kts | 53° |
| 2026-04-25 15:37 | 50.42451 | -60.95183 | 31913 ft | 460 kts | 53° |
| 2026-04-25 15:37 | 50.45999 | -60.86830 | 31913 ft | 460 kts | 53° |
| 2026-04-25 15:38 | 50.49542 | -60.78462 | 31915 ft | 461 kts | 54° |
| 2026-04-25 15:38 | 50.53084 | -60.70069 | 31914 ft | 461 kts | 54° |
| 2026-04-25 15:39 | 50.56621 | -60.61657 | 31917 ft | 462 kts | 54° |
| 2026-04-25 15:39 | 50.60160 | -60.53220 | 31919 ft | 462 kts | 54° |
| 2026-04-25 15:40 | 50.62501 | -60.47622 | 31919 ft | 462 kts | 54° |
| 2026-04-25 15:40 | 50.67195 | -60.36357 | 31926 ft | 462 kts | 54° |
| 2026-04-25 15:41 | 50.70746 | -60.27809 | 31891 ft | 463 kts | 54° |
| 2026-04-25 15:41 | 50.74245 | -60.19353 | 31880 ft | 463 kts | 54° |
| 2026-04-25 15:42 | 50.77761 | -60.10829 | 31880 ft | 462 kts | 54° |
| 2026-04-25 15:42 | 50.81260 | -60.02317 | 31877 ft | 461 kts | 54° |
| 2026-04-25 15:43 | 50.84694 | -59.93947 | 31863 ft | 460 kts | 55° |
| 2026-04-25 15:43 | 50.88168 | -59.85444 | 31872 ft | 460 kts | 55° |
| 2026-04-25 15:44 | 50.91635 | -59.76930 | 31865 ft | 459 kts | 55° |
| 2026-04-25 15:44 | 50.95090 | -59.68414 | 31870 ft | 459 kts | 55° |
| 2026-04-25 15:45 | 50.98541 | -59.59883 | 31858 ft | 460 kts | 55° |
| 2026-04-25 15:45 | 51.00842 | -59.54180 | 31865 ft | 459 kts | 55° |
| 2026-04-25 15:46 | 51.05411 | -59.42820 | 31857 ft | 458 kts | 56° |
| 2026-04-25 15:46 | 51.08833 | -59.34275 | 31854 ft | 457 kts | 56° |
| 2026-04-25 15:47 | 51.12238 | -59.25744 | 31854 ft | 457 kts | 56° |
| 2026-04-25 15:47 | 51.15640 | -59.17196 | 31836 ft | 457 kts | 56° |
| 2026-04-25 15:48 | 51.19037 | -59.08632 | 31840 ft | 457 kts | 56° |
| 2026-04-25 15:48 | 51.22428 | -59.00057 | 31853 ft | 457 kts | 56° |
| 2026-04-25 15:49 | 51.25755 | -58.91613 | 31829 ft | 457 kts | 56° |
| 2026-04-25 15:49 | 51.29129 | -58.83020 | 31832 ft | 456 kts | 56° |
| 2026-04-25 15:50 | 51.32489 | -58.74434 | 31822 ft | 456 kts | 56° |
| 2026-04-25 15:50 | 51.35841 | -58.65842 | 31826 ft | 455 kts | 57° |
| 2026-04-25 15:51 | 51.38056 | -58.60149 | 31820 ft | 455 kts | 57° |
| 2026-04-25 15:51 | 51.42513 | -58.48655 | 31815 ft | 454 kts | 57° |
| 2026-04-25 15:52 | 51.45831 | -58.40062 | 31808 ft | 453 kts | 57° |
| 2026-04-25 15:52 | 51.49129 | -58.31497 | 31818 ft | 450 kts | 57° |
| 2026-04-25 15:53 | 51.52411 | -58.22941 | 31822 ft | 449 kts | 57° |
| 2026-04-25 15:53 | 51.55653 | -58.14462 | 31819 ft | 448 kts | 57° |
| 2026-04-25 15:54 | 51.58901 | -58.05937 | 31808 ft | 447 kts | 57° |
| 2026-04-25 15:54 | 51.62092 | -57.97538 | 31795 ft | 447 kts | 57° |
| 2026-04-25 15:55 | 51.65325 | -57.88997 | 31798 ft | 447 kts | 57° |
| 2026-04-25 15:55 | 51.68557 | -57.80436 | 31796 ft | 447 kts | 57° |
| 2026-04-25 15:56 | 51.71778 | -57.71868 | 31789 ft | 447 kts | 58° |
| 2026-04-25 15:56 | 51.74995 | -57.63283 | 31792 ft | 447 kts | 58° |
| 2026-04-25 15:57 | 51.78213 | -57.54668 | 31784 ft | 448 kts | 58° |
| 2026-04-25 15:57 | 51.81428 | -57.46035 | 31785 ft | 449 kts | 58° |
| 2026-04-25 15:58 | 51.84102 | -57.38831 | 31785 ft | 450 kts | 58° |
| 2026-04-25 15:58 | 51.87319 | -57.30130 | 31792 ft | 451 kts | 58° |
| 2026-04-25 15:59 | 51.90544 | -57.21385 | 31788 ft | 452 kts | 58° |
| 2026-04-25 15:59 | 51.93769 | -57.12608 | 31787 ft | 454 kts | 58° |
| 2026-04-25 16:00 | 51.96454 | -57.05279 | 31780 ft | 455 kts | 58° |
| 2026-04-25 16:00 | 52.00170 | -56.95095 | 31787 ft | 456 kts | 58° |
| 2026-04-25 16:01 | 52.03383 | -56.86255 | 31786 ft | 451 kts | 58° |
| 2026-04-25 16:01 | 52.06533 | -56.77565 | 31793 ft | 445 kts | 58° |
| 2026-04-25 16:02 | 52.09665 | -56.68893 | 31794 ft | 445 kts | 58° |
| 2026-04-25 16:02 | 52.12801 | -56.60178 | 31794 ft | 447 kts | 58° |
| 2026-04-25 16:03 | 52.15950 | -56.51398 | 31800 ft | 450 kts | 59° |
| 2026-04-25 16:03 | 52.19104 | -56.42574 | 31806 ft | 452 kts | 59° |
| 2026-04-25 16:04 | 52.22267 | -56.33692 | 31805 ft | 454 kts | 59° |
| 2026-04-25 16:04 | 52.25431 | -56.24770 | 31807 ft | 455 kts | 59° |
| 2026-04-25 16:05 | 52.28599 | -56.15813 | 31811 ft | 455 kts | 59° |
| 2026-04-25 16:06 | 52.33329 | -56.02376 | 31814 ft | 454 kts | 59° |
| 2026-04-25 16:06 | 52.36424 | -55.93549 | 31811 ft | 454 kts | 59° |
| 2026-04-25 16:07 | 52.39281 | -55.84348 | 31815 ft | 455 kts | 67° |
| 2026-04-25 16:07 | 52.40957 | -55.74370 | 31822 ft | 457 kts | 81° |
| 2026-04-25 16:08 | 52.41416 | -55.64021 | 31823 ft | 459 kts | 82° |
| 2026-04-25 16:08 | 52.42170 | -55.53636 | 31814 ft | 459 kts | 78° |
| 2026-04-25 16:09 | 52.43312 | -55.43345 | 31818 ft | 459 kts | 76° |
| 2026-04-25 16:09 | 52.44600 | -55.33106 | 31819 ft | 459 kts | 76° |
| 2026-04-25 16:10 | 52.45899 | -55.22861 | 31826 ft | 459 kts | 76° |
| 2026-04-25 16:10 | 52.47177 | -55.12589 | 31821 ft | 460 kts | 76° |
| 2026-04-25 16:11 | 52.48438 | -55.02288 | 31820 ft | 461 kts | 77° |
| 2026-04-25 16:11 | 52.49669 | -54.92136 | 31825 ft | 461 kts | 77° |
| 2026-04-25 16:12 | 52.50912 | -54.81795 | 31822 ft | 463 kts | 77° |
| 2026-04-25 16:12 | 52.52154 | -54.71400 | 31831 ft | 464 kts | 77° |
| 2026-04-25 16:13 | 52.53389 | -54.60977 | 31834 ft | 466 kts | 77° |
| 2026-04-25 16:13 | 52.54620 | -54.50517 | 31833 ft | 467 kts | 77° |
| 2026-04-25 16:14 | 52.55843 | -54.40015 | 31832 ft | 469 kts | 77° |
| 2026-04-25 16:14 | 52.57063 | -54.29469 | 31833 ft | 470 kts | 78° |
| 2026-04-25 16:15 | 52.58276 | -54.18903 | 31834 ft | 471 kts | 78° |
| 2026-04-25 16:15 | 52.59560 | -54.07596 | 31833 ft | 472 kts | 78° |
| 2026-04-25 16:16 | 52.60736 | -53.97156 | 31835 ft | 472 kts | 78° |
| 2026-04-25 16:16 | 52.61925 | -53.86518 | 31834 ft | 473 kts | 78° |
| 2026-04-25 16:17 | 52.63108 | -53.75851 | 31833 ft | 473 kts | 78° |
| 2026-04-25 16:17 | 52.64279 | -53.65186 | 31833 ft | 473 kts | 78° |
| 2026-04-25 16:18 | 52.65439 | -53.54538 | 31833 ft | 472 kts | 78° |
| 2026-04-25 16:18 | 52.66589 | -53.43892 | 31833 ft | 471 kts | 78° |
| 2026-04-25 16:19 | 52.67726 | -53.33269 | 31832 ft | 470 kts | 79° |
| 2026-04-25 16:19 | 52.68850 | -53.22661 | 31832 ft | 469 kts | 79° |
| 2026-04-25 16:20 | 52.70515 | -53.06793 | 31833 ft | 468 kts | 79° |
| 2026-04-25 16:21 | 52.72142 | -52.91062 | 31834 ft | 469 kts | 79° |
| 2026-04-25 16:21 | 52.73226 | -52.80458 | 31834 ft | 469 kts | 79° |
| 2026-04-25 16:22 | 52.74302 | -52.69847 | 31834 ft | 469 kts | 79° |
| 2026-04-25 16:22 | 52.75368 | -52.59224 | 31870 ft | 469 kts | 79° |
| 2026-04-25 16:23 | 52.76425 | -52.48589 | 31877 ft | 469 kts | 80° |
| 2026-04-25 16:23 | 52.77297 | -52.39755 | 31881 ft | 470 kts | 80° |
| 2026-04-25 16:24 | 52.78507 | -52.27372 | 31879 ft | 470 kts | 80° |
| 2026-04-25 16:24 | 52.79372 | -52.18434 | 31881 ft | 471 kts | 80° |
| 2026-04-25 16:25 | 52.80396 | -52.07733 | 31880 ft | 471 kts | 80° |
| 2026-04-25 16:25 | 52.81392 | -51.97235 | 31888 ft | 471 kts | 80° |
| 2026-04-25 16:26 | 52.82400 | -51.86518 | 31888 ft | 471 kts | 81° |
| 2026-04-25 16:26 | 52.83397 | -51.75808 | 31889 ft | 472 kts | 81° |
| 2026-04-25 16:27 | 52.84385 | -51.65079 | 31888 ft | 471 kts | 81° |
| 2026-04-25 16:27 | 52.85360 | -51.54385 | 31889 ft | 471 kts | 81° |
| 2026-04-25 16:28 | 52.86326 | -51.43665 | 31888 ft | 471 kts | 81° |
| 2026-04-25 16:28 | 52.87283 | -51.32946 | 31889 ft | 471 kts | 81° |
| 2026-04-25 16:29 | 52.88232 | -51.22221 | 31890 ft | 471 kts | 81° |
| 2026-04-25 16:29 | 52.89171 | -51.11469 | 31891 ft | 471 kts | 81° |
| 2026-04-25 16:30 | 52.90096 | -51.00749 | 31889 ft | 471 kts | 82° |
| 2026-04-25 16:30 | 52.91001 | -50.90187 | 31886 ft | 470 kts | 82° |
| 2026-04-25 16:31 | 52.91910 | -50.79455 | 31889 ft | 470 kts | 82° |
| 2026-04-25 16:31 | 52.92807 | -50.68714 | 31895 ft | 470 kts | 82° |
| 2026-04-25 16:32 | 52.93689 | -50.58050 | 31899 ft | 470 kts | 82° |
| 2026-04-25 16:32 | 52.94569 | -50.47298 | 31899 ft | 471 kts | 82° |
| 2026-04-25 16:33 | 52.95440 | -50.36536 | 31898 ft | 471 kts | 82° |
| 2026-04-25 16:33 | 52.96301 | -50.25755 | 31898 ft | 472 kts | 83° |
| 2026-04-25 16:34 | 52.97154 | -50.14956 | 31899 ft | 472 kts | 83° |
| 2026-04-25 16:34 | 52.98000 | -50.04143 | 31899 ft | 472 kts | 83° |
| 2026-04-25 16:35 | 52.98746 | -49.95273 | 31899 ft | 472 kts | 79° |
| 2026-04-25 16:35 | 53.00512 | -49.82988 | 31899 ft | 472 kts | 76° |
| 2026-04-25 16:36 | 53.02170 | -49.72448 | 31898 ft | 471 kts | 76° |
| 2026-04-25 16:36 | 53.03741 | -49.61881 | 31894 ft | 471 kts | 77° |
| 2026-04-25 16:37 | 53.05251 | -49.51256 | 31804 ft | 473 kts | 77° |
| 2026-04-25 16:37 | 53.06736 | -49.40606 | 31795 ft | 473 kts | 78° |
| 2026-04-25 16:38 | 53.08213 | -49.29956 | 31800 ft | 472 kts | 78° |
| 2026-04-25 16:38 | 53.09680 | -49.19314 | 31797 ft | 472 kts | 78° |
| 2026-04-25 16:39 | 53.11137 | -49.08674 | 31799 ft | 471 kts | 78° |
| 2026-04-25 16:39 | 53.12536 | -48.98387 | 31799 ft | 471 kts | 78° |
| 2026-04-25 16:40 | 53.13982 | -48.87682 | 31796 ft | 470 kts | 78° |
| 2026-04-25 16:40 | 53.15399 | -48.77110 | 31795 ft | 470 kts | 78° |
| 2026-04-25 16:41 | 53.16816 | -48.66464 | 31796 ft | 470 kts | 78° |
| 2026-04-25 16:41 | 53.18922 | -48.50499 | 31796 ft | 470 kts | 78° |
| 2026-04-25 16:42 | 53.20307 | -48.39909 | 31794 ft | 470 kts | 78° |
| 2026-04-25 16:42 | 53.21691 | -48.29235 | 31797 ft | 471 kts | 79° |
| 2026-04-25 16:43 | 53.23069 | -48.18521 | 31793 ft | 472 kts | 79° |
| 2026-04-25 16:43 | 53.24438 | -48.07803 | 31794 ft | 473 kts | 79° |
| 2026-04-25 16:44 | 53.25773 | -47.97270 | 31801 ft | 473 kts | 79° |
| 2026-04-25 16:44 | 53.27129 | -47.86495 | 31804 ft | 473 kts | 79° |
| 2026-04-25 16:45 | 53.28471 | -47.75746 | 31807 ft | 472 kts | 79° |
| 2026-04-25 16:45 | 53.29800 | -47.65009 | 31801 ft | 472 kts | 79° |
| 2026-04-25 16:46 | 53.31118 | -47.54271 | 31806 ft | 471 kts | 79° |
| 2026-04-25 16:46 | 53.31987 | -47.47145 | 31808 ft | 471 kts | 80° |
| 2026-04-25 16:47 | 53.33726 | -47.32797 | 31807 ft | 470 kts | 80° |
| 2026-04-25 16:47 | 53.35013 | -47.22070 | 31807 ft | 470 kts | 80° |
| 2026-04-25 16:48 | 53.36281 | -47.11410 | 31806 ft | 469 kts | 80° |
| 2026-04-25 16:48 | 53.37554 | -47.00629 | 31806 ft | 469 kts | 80° |
| 2026-04-25 16:49 | 53.38787 | -46.90087 | 31808 ft | 469 kts | 81° |
| 2026-04-25 16:49 | 53.40022 | -46.79448 | 31803 ft | 468 kts | 81° |
| 2026-04-25 16:50 | 53.41255 | -46.68731 | 31804 ft | 469 kts | 81° |
| 2026-04-25 16:50 | 53.42481 | -46.58002 | 31802 ft | 468 kts | 81° |
| 2026-04-25 16:51 | 53.43697 | -46.47270 | 31812 ft | 469 kts | 81° |
| 2026-04-25 16:51 | 53.44700 | -46.38337 | 31816 ft | 469 kts | 81° |
| 2026-04-25 16:52 | 53.46102 | -46.25743 | 31814 ft | 470 kts | 81° |
| 2026-04-25 16:52 | 53.47292 | -46.14952 | 31816 ft | 471 kts | 82° |
| 2026-04-25 16:53 | 53.49043 | -45.98911 | 31815 ft | 471 kts | 82° |
| 2026-04-25 16:54 | 53.50213 | -45.88074 | 31817 ft | 471 kts | 82° |
| 2026-04-25 16:54 | 53.51372 | -45.77233 | 31814 ft | 472 kts | 82° |
| 2026-04-25 16:55 | 53.52521 | -45.66391 | 31814 ft | 471 kts | 82° |
| 2026-04-25 16:55 | 53.53661 | -45.55550 | 31814 ft | 471 kts | 82° |
| 2026-04-25 16:56 | 53.54790 | -45.44698 | 31815 ft | 471 kts | 82° |
| 2026-04-25 16:56 | 53.55908 | -45.33849 | 31809 ft | 471 kts | 83° |
| 2026-04-25 16:57 | 53.57012 | -45.23036 | 31772 ft | 471 kts | 83° |
| 2026-04-25 16:57 | 53.58114 | -45.12160 | 31767 ft | 471 kts | 83° |
| 2026-04-25 16:58 | 53.59203 | -45.01307 | 31772 ft | 470 kts | 83° |
| 2026-04-25 16:58 | 53.60264 | -44.90625 | 31780 ft | 470 kts | 83° |
| 2026-04-25 16:59 | 53.61332 | -44.79763 | 31776 ft | 470 kts | 83° |
| 2026-04-25 16:59 | 53.62390 | -44.68881 | 31780 ft | 471 kts | 83° |
| 2026-04-25 17:00 | 53.63431 | -44.58064 | 31794 ft | 471 kts | 83° |
| 2026-04-25 17:00 | 53.64480 | -44.47085 | 31785 ft | 472 kts | 84° |
| 2026-04-25 17:01 | 53.65505 | -44.36238 | 31785 ft | 472 kts | 84° |
| 2026-04-25 17:01 | 53.66529 | -44.25299 | 31791 ft | 472 kts | 84° |
| 2026-04-25 17:02 | 53.67546 | -44.14326 | 31797 ft | 473 kts | 84° |
| 2026-04-25 17:02 | 53.68552 | -44.03345 | 31797 ft | 473 kts | 84° |
| 2026-04-25 17:03 | 53.69526 | -43.92623 | 31793 ft | 473 kts | 84° |
| 2026-04-25 17:03 | 53.70510 | -43.81656 | 31801 ft | 473 kts | 84° |
| 2026-04-25 17:04 | 53.71485 | -43.70681 | 31804 ft | 473 kts | 85° |
| 2026-04-25 17:04 | 53.72449 | -43.59703 | 31803 ft | 473 kts | 85° |
| 2026-04-25 17:05 | 53.73404 | -43.48714 | 31808 ft | 473 kts | 85° |
| 2026-04-25 17:05 | 53.74823 | -43.32181 | 31814 ft | 474 kts | 85° |
| 2026-04-25 17:06 | 53.75757 | -43.21125 | 31815 ft | 475 kts | 85° |
| 2026-04-25 17:06 | 53.76683 | -43.10049 | 31816 ft | 476 kts | 85° |
| 2026-04-25 17:07 | 53.77583 | -42.99146 | 31815 ft | 477 kts | 86° |
| 2026-04-25 17:07 | 53.78492 | -42.88014 | 31821 ft | 478 kts | 86° |
| 2026-04-25 17:08 | 53.79392 | -42.76864 | 31825 ft | 479 kts | 86° |
| 2026-04-25 17:08 | 53.80133 | -42.67579 | 31824 ft | 480 kts | 86° |
| 2026-04-25 17:09 | 53.81016 | -42.56381 | 31824 ft | 480 kts | 86° |
| 2026-04-25 17:09 | 53.81892 | -42.45155 | 31825 ft | 481 kts | 86° |
| 2026-04-25 17:10 | 53.82758 | -42.33923 | 31835 ft | 482 kts | 86° |
| 2026-04-25 17:10 | 53.83615 | -42.22656 | 31833 ft | 483 kts | 86° |
| 2026-04-25 17:11 | 53.84462 | -42.11365 | 31833 ft | 483 kts | 86° |
| 2026-04-25 17:11 | 53.85298 | -42.00081 | 31831 ft | 483 kts | 86° |
| 2026-04-25 17:12 | 53.86107 | -41.89048 | 31836 ft | 483 kts | 86° |
| 2026-04-25 17:12 | 53.86922 | -41.77757 | 31838 ft | 483 kts | 86° |
| 2026-04-25 17:13 | 53.87597 | -41.68289 | 31844 ft | 483 kts | 87° |
| 2026-04-25 17:13 | 53.88522 | -41.55152 | 31841 ft | 483 kts | 87° |
| 2026-04-25 17:14 | 53.89304 | -41.43856 | 31835 ft | 483 kts | 87° |
| 2026-04-25 17:14 | 53.90077 | -41.32534 | 31845 ft | 484 kts | 88° |
| 2026-04-25 17:15 | 53.90841 | -41.21197 | 31849 ft | 484 kts | 88° |
| 2026-04-25 17:15 | 53.91595 | -41.09834 | 31851 ft | 485 kts | 88° |
| 2026-04-25 17:16 | 53.92329 | -40.98617 | 31855 ft | 487 kts | 88° |
| 2026-04-25 17:16 | 53.93066 | -40.87172 | 31849 ft | 489 kts | 88° |
| 2026-04-25 17:17 | 53.93797 | -40.75669 | 31851 ft | 491 kts | 88° |
| 2026-04-25 17:17 | 53.94519 | -40.64130 | 31850 ft | 492 kts | 88° |
| 2026-04-25 17:18 | 53.95232 | -40.52549 | 31861 ft | 493 kts | 88° |
| 2026-04-25 17:18 | 53.95935 | -40.40936 | 31859 ft | 495 kts | 88° |
| 2026-04-25 17:19 | 53.96629 | -40.29306 | 31862 ft | 495 kts | 88° |
| 2026-04-25 17:19 | 53.97313 | -40.17641 | 31862 ft | 496 kts | 88° |
| 2026-04-25 17:20 | 53.97986 | -40.05982 | 31860 ft | 496 kts | 88° |
| 2026-04-25 17:20 | 53.98608 | -39.94489 | 31860 ft | 495 kts | 89° |
| 2026-04-25 17:21 | 53.99080 | -39.82823 | 31873 ft | 495 kts | 90° |
| 2026-04-25 17:21 | 53.99509 | -39.71157 | 31868 ft | 495 kts | 90° |
| 2026-04-25 17:22 | 53.99869 | -39.61460 | 31876 ft | 495 kts | 90° |
| 2026-04-25 17:22 | 54.00379 | -39.47851 | 31867 ft | 496 kts | 90° |
| 2026-04-25 17:23 | 54.00807 | -39.36197 | 31875 ft | 497 kts | 90° |
| 2026-04-25 17:23 | 54.01230 | -39.24427 | 31867 ft | 500 kts | 90° |
| 2026-04-25 17:24 | 54.01642 | -39.12595 | 31872 ft | 502 kts | 90° |
| 2026-04-25 17:24 | 54.02045 | -39.00679 | 31876 ft | 504 kts | 90° |
| 2026-04-25 17:25 | 54.02427 | -38.89066 | 31880 ft | 506 kts | 90° |
| 2026-04-25 17:25 | 54.02808 | -38.77083 | 31880 ft | 508 kts | 90° |
| 2026-04-25 17:26 | 54.03179 | -38.65040 | 31880 ft | 510 kts | 90° |
| 2026-04-25 17:26 | 54.03538 | -38.52977 | 31880 ft | 510 kts | 91° |
| 2026-04-25 17:27 | 54.03888 | -38.40908 | 31880 ft | 511 kts | 91° |
| 2026-04-25 17:27 | 54.04112 | -38.32919 | 31879 ft | 511 kts | 91° |
| 2026-04-25 17:28 | 54.04546 | -38.16775 | 31880 ft | 510 kts | 91° |
| 2026-04-25 17:28 | 54.04857 | -38.04724 | 31885 ft | 509 kts | 91° |
| 2026-04-25 17:29 | 54.05149 | -37.92984 | 31884 ft | 509 kts | 91° |
| 2026-04-25 17:29 | 54.05436 | -37.80934 | 31878 ft | 509 kts | 91° |
| 2026-04-25 17:30 | 54.05710 | -37.68885 | 31879 ft | 509 kts | 91° |
| 2026-04-25 17:30 | 54.05973 | -37.56824 | 31881 ft | 509 kts | 91° |
| 2026-04-25 17:31 | 54.06225 | -37.44748 | 31879 ft | 510 kts | 91° |
| 2026-04-25 17:31 | 54.06463 | -37.32640 | 31885 ft | 511 kts | 91° |
| 2026-04-25 17:32 | 54.06691 | -37.20601 | 31889 ft | 513 kts | 91° |
| 2026-04-25 17:32 | 54.06908 | -37.08435 | 31889 ft | 514 kts | 91° |
| 2026-04-25 17:33 | 54.07109 | -36.96449 | 31903 ft | 515 kts | 91° |
| 2026-04-25 17:33 | 54.07301 | -36.84240 | 31907 ft | 516 kts | 91° |
| 2026-04-25 17:34 | 54.07481 | -36.71999 | 31910 ft | 518 kts | 91° |
| 2026-04-25 17:34 | 54.07651 | -36.59714 | 31910 ft | 519 kts | 92° |
| 2026-04-25 17:35 | 54.07808 | -36.47490 | 31907 ft | 519 kts | 92° |
| 2026-04-25 17:35 | 54.07952 | -36.35173 | 31913 ft | 519 kts | 92° |
| 2026-04-25 17:36 | 54.08084 | -36.22855 | 31895 ft | 520 kts | 92° |
| 2026-04-25 17:36 | 54.08203 | -36.10537 | 31890 ft | 520 kts | 92° |
| 2026-04-25 17:37 | 54.08308 | -35.98427 | 31887 ft | 519 kts | 92° |
| 2026-04-25 17:37 | 54.08401 | -35.86142 | 31894 ft | 518 kts | 92° |
| 2026-04-25 17:38 | 54.08457 | -35.78003 | 31895 ft | 518 kts | 92° |
| 2026-04-25 17:38 | 54.08552 | -35.61569 | 31897 ft | 518 kts | 92° |
| 2026-04-25 17:39 | 54.08608 | -35.49367 | 31898 ft | 519 kts | 92° |
| 2026-04-25 17:39 | 54.08653 | -35.37034 | 31898 ft | 519 kts | 92° |
| 2026-04-25 17:40 | 54.08684 | -35.24754 | 31904 ft | 520 kts | 92° |
| 2026-04-25 17:40 | 54.08702 | -35.12388 | 31910 ft | 522 kts | 92° |
| 2026-04-25 17:41 | 54.08708 | -35.00027 | 31907 ft | 523 kts | 92° |
| 2026-04-25 17:41 | 54.08702 | -34.87799 | 31907 ft | 524 kts | 92° |
| 2026-04-25 17:42 | 54.08684 | -34.75413 | 31906 ft | 526 kts | 93° |
| 2026-04-25 17:42 | 54.08651 | -34.62886 | 31909 ft | 528 kts | 93° |
| 2026-04-25 17:43 | 54.08607 | -34.50419 | 31917 ft | 529 kts | 93° |
| 2026-04-25 17:43 | 54.08549 | -34.37821 | 31920 ft | 530 kts | 93° |
| 2026-04-25 17:44 | 54.08477 | -34.25261 | 31914 ft | 531 kts | 93° |
| 2026-04-25 17:44 | 54.08392 | -34.12660 | 31920 ft | 532 kts | 93° |
| 2026-04-25 17:45 | 54.08329 | -34.04298 | 31918 ft | 532 kts | 93° |
| 2026-04-25 17:45 | 54.08188 | -33.87692 | 31918 ft | 532 kts | 93° |
| 2026-04-25 17:46 | 54.08063 | -33.75088 | 31925 ft | 532 kts | 94° |
| 2026-04-25 17:46 | 54.07925 | -33.62484 | 31926 ft | 531 kts | 94° |
| 2026-04-25 17:47 | 54.07774 | -33.49898 | 31929 ft | 530 kts | 94° |
| 2026-04-25 17:47 | 54.07613 | -33.37409 | 31921 ft | 530 kts | 94° |
| 2026-04-25 17:48 | 54.07344 | -33.18563 | 31931 ft | 528 kts | 93° |
| 2026-04-25 17:49 | 54.07150 | -33.06126 | 31932 ft | 528 kts | 93° |
| 2026-04-25 17:49 | 54.06948 | -32.93832 | 31932 ft | 528 kts | 93° |
| 2026-04-25 17:50 | 54.06726 | -32.81319 | 31936 ft | 529 kts | 93° |
| 2026-04-25 17:50 | 54.06492 | -32.68812 | 31932 ft | 531 kts | 93° |
| 2026-04-25 17:51 | 54.06243 | -32.56214 | 31933 ft | 533 kts | 93° |
| 2026-04-25 17:51 | 54.05980 | -32.43577 | 31943 ft | 534 kts | 93° |
| 2026-04-25 17:52 | 54.05704 | -32.30910 | 31946 ft | 536 kts | 93° |
| 2026-04-25 17:52 | 54.05465 | -32.20355 | 31950 ft | 537 kts | 93° |
| 2026-04-25 17:53 | 54.05163 | -32.07621 | 31932 ft | 539 kts | 93° |
| 2026-04-25 17:53 | 54.04855 | -31.95187 | 31945 ft | 539 kts | 93° |
| 2026-04-25 17:54 | 54.04525 | -31.82444 | 31945 ft | 539 kts | 94° |
| 2026-04-25 17:54 | 54.04182 | -31.69701 | 31947 ft | 538 kts | 94° |
| 2026-04-25 17:55 | 54.03827 | -31.56983 | 31952 ft | 537 kts | 94° |
| 2026-04-25 17:55 | 54.03462 | -31.44393 | 31953 ft | 535 kts | 94° |
| 2026-04-25 17:56 | 54.03081 | -31.31735 | 31950 ft | 534 kts | 94° |
| 2026-04-25 17:56 | 54.02689 | -31.19150 | 31953 ft | 532 kts | 94° |
| 2026-04-25 17:57 | 54.02285 | -31.06586 | 31954 ft | 531 kts | 94° |
| 2026-04-25 17:57 | 54.01878 | -30.94300 | 32016 ft | 529 kts | 94° |
| 2026-04-25 17:58 | 54.01453 | -30.81887 | 32090 ft | 529 kts | 94° |
| 2026-04-25 17:58 | 54.01013 | -30.69386 | 32094 ft | 531 kts | 94° |
| 2026-04-25 17:59 | 54.00554 | -30.56766 | 32094 ft | 534 kts | 94° |
| 2026-04-25 17:59 | 54.00083 | -30.44186 | 32096 ft | 537 kts | 94° |
| 2026-04-25 18:00 | 53.99594 | -30.31453 | 32089 ft | 539 kts | 94° |
| 2026-04-25 18:00 | 53.99094 | -30.18775 | 32096 ft | 541 kts | 94° |
| 2026-04-25 18:01 | 53.98576 | -30.05960 | 32093 ft | 542 kts | 94° |
| 2026-04-25 18:01 | 53.98231 | -29.93486 | 32087 ft | 540 kts | 87° |
| 2026-04-25 18:02 | 53.98822 | -29.80775 | 32093 ft | 539 kts | 83° |
| 2026-04-25 18:02 | 53.99540 | -29.68074 | 32092 ft | 539 kts | 84° |
| 2026-04-25 18:03 | 54.00121 | -29.55357 | 32093 ft | 539 kts | 85° |
| 2026-04-25 18:03 | 54.00596 | -29.42655 | 32096 ft | 537 kts | 86° |
| 2026-04-25 18:04 | 54.01039 | -29.30019 | 32091 ft | 534 kts | 86° |
| 2026-04-25 18:04 | 54.01470 | -29.17504 | 32091 ft | 531 kts | 86° |
| 2026-04-25 18:05 | 54.01896 | -29.04992 | 32089 ft | 529 kts | 86° |
| 2026-04-25 18:05 | 54.02305 | -28.92715 | 32094 ft | 526 kts | 86° |
| 2026-04-25 18:06 | 54.02706 | -28.80285 | 32093 ft | 526 kts | 86° |
| 2026-04-25 18:06 | 54.03092 | -28.67849 | 32091 ft | 527 kts | 87° |
| 2026-04-25 18:07 | 54.03466 | -28.55383 | 32092 ft | 528 kts | 87° |
| 2026-04-25 18:07 | 54.03827 | -28.42885 | 32095 ft | 530 kts | 87° |
| 2026-04-25 18:08 | 54.04179 | -28.30342 | 32091 ft | 532 kts | 87° |
| 2026-04-25 18:08 | 54.04518 | -28.17726 | 32093 ft | 534 kts | 87° |
| 2026-04-25 18:09 | 54.04846 | -28.05078 | 32092 ft | 535 kts | 87° |
| 2026-04-25 18:09 | 54.05153 | -27.92696 | 32094 ft | 537 kts | 88° |
| 2026-04-25 18:10 | 54.05455 | -27.79998 | 32093 ft | 537 kts | 88° |
| 2026-04-25 18:10 | 54.05744 | -27.67307 | 32090 ft | 536 kts | 88° |
| 2026-04-25 18:11 | 54.06018 | -27.54653 | 32093 ft | 534 kts | 88° |
| 2026-04-25 18:11 | 54.06277 | -27.42053 | 32090 ft | 531 kts | 88° |
| 2026-04-25 18:12 | 54.06522 | -27.29506 | 32091 ft | 529 kts | 88° |
| 2026-04-25 18:12 | 54.06754 | -27.17001 | 32091 ft | 527 kts | 89° |
| 2026-04-25 18:13 | 54.06973 | -27.04533 | 32091 ft | 526 kts | 89° |
| 2026-04-25 18:13 | 54.07175 | -26.92253 | 32092 ft | 526 kts | 89° |
| 2026-04-25 18:14 | 54.07458 | -26.73545 | 32094 ft | 528 kts | 89° |
| 2026-04-25 18:14 | 54.07632 | -26.61020 | 32086 ft | 532 kts | 88° |
| 2026-04-25 18:15 | 54.07795 | -26.48292 | 32110 ft | 542 kts | 88° |
| 2026-04-25 18:15 | 54.07946 | -26.35500 | 32096 ft | 545 kts | 89° |
| 2026-04-25 18:16 | 54.08084 | -26.22585 | 32104 ft | 545 kts | 89° |
| 2026-04-25 18:17 | 54.08266 | -26.03199 | 32099 ft | 546 kts | 89° |
| 2026-04-25 18:17 | 54.08367 | -25.90506 | 32107 ft | 546 kts | 89° |
| 2026-04-25 18:18 | 54.08458 | -25.77557 | 32102 ft | 545 kts | 89° |
| 2026-04-25 18:18 | 54.08534 | -25.64655 | 32108 ft | 544 kts | 89° |
| 2026-04-25 18:19 | 54.08596 | -25.51799 | 32113 ft | 542 kts | 89° |
| 2026-04-25 18:19 | 54.08644 | -25.38975 | 32124 ft | 541 kts | 90° |
| 2026-04-25 18:20 | 54.08678 | -25.26283 | 32126 ft | 538 kts | 90° |
| 2026-04-25 18:20 | 54.08699 | -25.13553 | 32127 ft | 536 kts | 90° |
| 2026-04-25 18:21 | 54.08706 | -25.00877 | 32125 ft | 534 kts | 91° |
| 2026-04-25 18:21 | 54.08701 | -24.88435 | 32126 ft | 533 kts | 91° |
| 2026-04-25 18:22 | 54.08682 | -24.75785 | 32126 ft | 533 kts | 91° |
| 2026-04-25 18:22 | 54.08651 | -24.63180 | 32133 ft | 533 kts | 91° |
| 2026-04-25 18:23 | 54.08607 | -24.50558 | 32129 ft | 533 kts | 92° |
| 2026-04-25 18:23 | 54.08548 | -24.37921 | 32131 ft | 534 kts | 92° |
| 2026-04-25 18:24 | 54.08476 | -24.25218 | 32131 ft | 535 kts | 92° |
| 2026-04-25 18:24 | 54.08390 | -24.12512 | 32138 ft | 536 kts | 92° |
| 2026-04-25 18:25 | 54.08292 | -23.99910 | 32128 ft | 538 kts | 92° |
| 2026-04-25 18:25 | 54.08181 | -23.87338 | 32127 ft | 538 kts | 93° |
| 2026-04-25 18:26 | 54.08055 | -23.74537 | 32125 ft | 538 kts | 93° |
| 2026-04-25 18:26 | 54.07917 | -23.61842 | 32135 ft | 537 kts | 93° |
| 2026-04-25 18:27 | 54.07764 | -23.49147 | 32124 ft | 536 kts | 93° |
| 2026-04-25 18:27 | 54.07600 | -23.36517 | 32126 ft | 534 kts | 93° |
| 2026-04-25 18:28 | 54.07423 | -23.23882 | 32129 ft | 533 kts | 94° |
| 2026-04-25 18:28 | 54.07230 | -23.11223 | 32125 ft | 532 kts | 94° |
| 2026-04-25 18:29 | 54.06924 | -22.92617 | 32128 ft | 530 kts | 94° |
| 2026-04-25 18:30 | 54.06468 | -22.67549 | 32137 ft | 531 kts | 95° |
| 2026-04-25 18:30 | 54.06218 | -22.54977 | 32142 ft | 532 kts | 95° |
| 2026-04-25 18:31 | 54.05953 | -22.42354 | 32149 ft | 533 kts | 95° |
| 2026-04-25 18:31 | 54.05677 | -22.29710 | 32148 ft | 534 kts | 95° |
| 2026-04-25 18:32 | 54.05389 | -22.17139 | 32150 ft | 535 kts | 95° |
| 2026-04-25 18:32 | 54.05085 | -22.04466 | 32146 ft | 536 kts | 96° |
| 2026-04-25 18:33 | 54.04773 | -21.91966 | 32148 ft | 536 kts | 96° |
| 2026-04-25 18:33 | 54.04442 | -21.79305 | 32147 ft | 536 kts | 96° |
| 2026-04-25 18:34 | 54.04098 | -21.66636 | 32145 ft | 535 kts | 96° |
| 2026-04-25 18:34 | 54.03741 | -21.53994 | 32153 ft | 534 kts | 96° |
| 2026-04-25 18:35 | 54.03373 | -21.41400 | 32146 ft | 533 kts | 96° |
| 2026-04-25 18:35 | 54.02994 | -21.28866 | 32148 ft | 531 kts | 96° |
| 2026-04-25 18:36 | 54.02603 | -21.16380 | 32147 ft | 530 kts | 96° |
| 2026-04-25 18:36 | 54.02196 | -21.03868 | 32148 ft | 529 kts | 96° |
| 2026-04-25 18:37 | 54.01786 | -20.91597 | 32145 ft | 527 kts | 96° |
| 2026-04-25 18:37 | 54.01358 | -20.79165 | 32151 ft | 526 kts | 96° |
| 2026-04-25 18:38 | 54.00921 | -20.66837 | 32156 ft | 525 kts | 96° |
| 2026-04-25 18:38 | 54.00467 | -20.54433 | 32155 ft | 524 kts | 97° |
| 2026-04-25 18:39 | 54.00006 | -20.42139 | 32157 ft | 523 kts | 97° |
| 2026-04-25 18:39 | 53.99530 | -20.29787 | 32157 ft | 523 kts | 97° |
| 2026-04-25 18:40 | 53.99120 | -20.19444 | 32158 ft | 524 kts | 97° |
| 2026-04-25 18:40 | 53.98625 | -20.07150 | 32156 ft | 523 kts | 97° |
| 2026-04-25 18:41 | 53.98344 | -19.94986 | 32159 ft | 526 kts | 91° |
| 2026-04-25 18:41 | 53.98603 | -19.82561 | 32161 ft | 527 kts | 90° |
| 2026-04-25 18:42 | 53.98845 | -19.72201 | 32158 ft | 527 kts | 90° |
| 2026-04-25 18:42 | 53.99136 | -19.57688 | 32158 ft | 527 kts | 91° |
| 2026-04-25 18:43 | 53.99347 | -19.45197 | 32158 ft | 526 kts | 91° |
| 2026-04-25 18:43 | 53.99538 | -19.32779 | 32158 ft | 525 kts | 91° |
| 2026-04-25 18:44 | 53.99716 | -19.20450 | 32156 ft | 524 kts | 91° |
| 2026-04-25 18:44 | 53.99884 | -19.08057 | 32156 ft | 523 kts | 91° |
| 2026-04-25 18:45 | 54.00036 | -18.95988 | 32155 ft | 522 kts | 92° |
| 2026-04-25 18:45 | 54.00181 | -18.83613 | 32158 ft | 521 kts | 92° |
| 2026-04-25 18:46 | 54.00311 | -18.71377 | 32167 ft | 520 kts | 92° |
| 2026-04-25 18:46 | 54.00429 | -18.59018 | 32167 ft | 520 kts | 92° |
| 2026-04-25 18:47 | 54.00533 | -18.46752 | 32166 ft | 519 kts | 92° |
| 2026-04-25 18:47 | 54.00626 | -18.34450 | 32165 ft | 519 kts | 92° |
| 2026-04-25 18:48 | 54.00706 | -18.22218 | 32167 ft | 519 kts | 92° |
| 2026-04-25 18:48 | 54.00772 | -18.10010 | 32165 ft | 519 kts | 93° |
| 2026-04-25 18:49 | 54.00827 | -17.97898 | 32167 ft | 519 kts | 93° |
| 2026-04-25 18:49 | 54.00870 | -17.85633 | 32165 ft | 518 kts | 93° |
| 2026-04-25 18:50 | 54.00899 | -17.73363 | 32166 ft | 518 kts | 93° |
| 2026-04-25 18:50 | 54.00917 | -17.61138 | 32167 ft | 518 kts | 93° |
| 2026-04-25 18:51 | 54.00922 | -17.50943 | 32165 ft | 519 kts | 93° |
| 2026-04-25 18:51 | 54.00915 | -17.36622 | 32167 ft | 519 kts | 94° |
| 2026-04-25 18:52 | 54.00895 | -17.24326 | 32167 ft | 519 kts | 94° |
| 2026-04-25 18:52 | 54.00863 | -17.12079 | 32166 ft | 518 kts | 94° |
| 2026-04-25 18:53 | 54.00818 | -16.99916 | 32167 ft | 519 kts | 94° |
| 2026-04-25 18:53 | 54.00763 | -16.87784 | 32167 ft | 519 kts | 94° |
| 2026-04-25 18:54 | 54.00654 | -16.69424 | 32166 ft | 519 kts | 95° |
| 2026-04-25 18:55 | 54.00563 | -16.57120 | 32166 ft | 519 kts | 95° |
| 2026-04-25 18:55 | 54.00464 | -16.44900 | 32165 ft | 519 kts | 95° |
| 2026-04-25 18:56 | 54.00350 | -16.32617 | 32167 ft | 519 kts | 95° |
| 2026-04-25 18:56 | 54.00225 | -16.20347 | 32167 ft | 519 kts | 95° |
| 2026-04-25 18:57 | 54.00088 | -16.08115 | 32167 ft | 519 kts | 95° |
| 2026-04-25 18:57 | 53.99939 | -15.96045 | 32166 ft | 519 kts | 95° |
| 2026-04-25 18:58 | 53.99776 | -15.83760 | 32166 ft | 519 kts | 95° |
| 2026-04-25 18:58 | 53.99508 | -15.65293 | 32165 ft | 520 kts | 95° |
| 2026-04-25 18:59 | 53.99108 | -15.40828 | 32167 ft | 519 kts | 95° |
| 2026-04-25 19:00 | 53.98776 | -15.22464 | 32169 ft | 518 kts | 95° |
| 2026-04-25 19:01 | 53.98417 | -15.04100 | 32166 ft | 517 kts | 96° |
| 2026-04-25 19:01 | 53.98259 | -14.92083 | 32164 ft | 518 kts | 94° |
| 2026-04-25 19:02 | 53.98385 | -14.73750 | 32164 ft | 518 kts | 93° |
| 2026-04-25 19:03 | 53.98438 | -14.59463 | 32167 ft | 517 kts | 93° |
| 2026-04-25 19:03 | 53.98435 | -14.43148 | 32166 ft | 517 kts | 94° |
| 2026-04-25 19:04 | 53.98409 | -14.24856 | 32165 ft | 516 kts | 94° |
| 2026-04-25 19:05 | 53.97859 | -14.00568 | 32168 ft | 510 kts | 103° |
| 2026-04-25 19:07 | 53.89275 | -13.56091 | 32166 ft | 505 kts | 113° |
| 2026-04-25 19:08 | 53.85794 | -13.39237 | 32166 ft | 505 kts | 113° |
| 2026-04-25 19:09 | 53.81526 | -13.18750 | 32166 ft | 505 kts | 113° |
| 2026-04-25 19:10 | 53.77599 | -13.00092 | 32165 ft | 505 kts | 114° |
| 2026-04-25 19:10 | 53.75259 | -12.89063 | 32166 ft | 505 kts | 113° |
| 2026-04-25 19:11 | 53.72883 | -12.77929 | 32166 ft | 505 kts | 114° |
| 2026-04-25 19:11 | 53.70495 | -12.66781 | 32167 ft | 505 kts | 114° |
| 2026-04-25 19:12 | 53.68084 | -12.55604 | 32167 ft | 505 kts | 114° |
| 2026-04-25 19:12 | 53.65676 | -12.44501 | 32165 ft | 505 kts | 114° |
| 2026-04-25 19:13 | 53.63252 | -12.33378 | 32167 ft | 504 kts | 114° |
| 2026-04-25 19:13 | 53.60824 | -12.22303 | 32166 ft | 504 kts | 114° |
| 2026-04-25 19:14 | 53.58397 | -12.11285 | 32166 ft | 504 kts | 114° |
| 2026-04-25 19:14 | 53.55941 | -12.00196 | 32166 ft | 504 kts | 114° |
| 2026-04-25 19:15 | 53.53535 | -11.89385 | 32166 ft | 504 kts | 114° |
| 2026-04-25 19:15 | 53.51062 | -11.78328 | 32168 ft | 504 kts | 114° |
| 2026-04-25 19:16 | 53.48594 | -11.67356 | 32165 ft | 504 kts | 114° |
| 2026-04-25 19:16 | 53.46096 | -11.56318 | 32168 ft | 504 kts | 114° |
| 2026-04-25 19:17 | 53.43603 | -11.45358 | 32164 ft | 505 kts | 114° |
| 2026-04-25 19:17 | 53.41081 | -11.34326 | 32169 ft | 505 kts | 114° |
| 2026-04-25 19:18 | 53.38567 | -11.23382 | 32166 ft | 506 kts | 114° |
| 2026-04-25 19:18 | 53.36034 | -11.12411 | 32167 ft | 506 kts | 115° |
| 2026-04-25 19:19 | 53.33470 | -11.01365 | 32170 ft | 507 kts | 115° |
| 2026-04-25 19:19 | 53.30969 | -10.90646 | 32177 ft | 507 kts | 115° |
| 2026-04-25 19:20 | 53.28402 | -10.79698 | 32177 ft | 507 kts | 115° |
| 2026-04-25 19:20 | 53.25815 | -10.68726 | 32175 ft | 507 kts | 115° |
| 2026-04-25 19:21 | 53.23240 | -10.57857 | 32174 ft | 507 kts | 115° |
| 2026-04-25 19:21 | 53.19321 | -10.41419 | 32175 ft | 506 kts | 115° |
| 2026-04-25 19:22 | 53.16701 | -10.30495 | 32177 ft | 506 kts | 115° |
| 2026-04-25 19:23 | 53.12766 | -10.14194 | 32176 ft | 506 kts | 115° |
| 2026-04-25 19:23 | 53.08859 | -9.98131 | 32175 ft | 506 kts | 115° |
| 2026-04-25 19:24 | 53.06202 | -9.87274 | 32175 ft | 507 kts | 115° |
| 2026-04-25 19:25 | 53.00859 | -9.65599 | 32175 ft | 508 kts | 115° |
| 2026-04-25 19:25 | 52.98167 | -9.54760 | 32174 ft | 508 kts | 116° |
| 2026-04-25 19:26 | 52.95459 | -9.43908 | 32178 ft | 509 kts | 116° |
| 2026-04-25 19:26 | 52.92750 | -9.33114 | 32185 ft | 509 kts | 116° |
| 2026-04-25 19:27 | 52.90937 | -9.25913 | 32187 ft | 509 kts | 116° |
| 2026-04-25 19:27 | 52.87281 | -9.11462 | 32185 ft | 509 kts | 116° |
| 2026-04-25 19:28 | 52.84540 | -9.00690 | 32182 ft | 509 kts | 116° |
| 2026-04-25 19:28 | 52.81827 | -8.90084 | 32184 ft | 509 kts | 116° |
| 2026-04-25 19:29 | 52.79054 | -8.79295 | 32187 ft | 509 kts | 116° |
| 2026-04-25 19:29 | 52.76288 | -8.68573 | 32185 ft | 510 kts | 116° |
| 2026-04-25 19:30 | 52.73497 | -8.57814 | 32188 ft | 510 kts | 116° |
| 2026-04-25 19:30 | 52.70678 | -8.47002 | 32194 ft | 514 kts | 116° |
| 2026-04-25 19:31 | 52.67834 | -8.36149 | 32189 ft | 519 kts | 116° |
| 2026-04-25 19:31 | 52.64953 | -8.25197 | 32186 ft | 520 kts | 117° |
| 2026-04-25 19:32 | 52.62075 | -8.14304 | 32179 ft | 520 kts | 117° |
| 2026-04-25 19:32 | 52.60139 | -8.07010 | 32179 ft | 519 kts | 117° |
| 2026-04-25 19:33 | 52.56824 | -7.94576 | 32185 ft | 518 kts | 117° |
| 2026-04-25 19:33 | 52.53916 | -7.83730 | 32184 ft | 518 kts | 117° |
| 2026-04-25 19:34 | 52.51015 | -7.72957 | 32182 ft | 518 kts | 117° |
| 2026-04-25 19:34 | 52.48071 | -7.62073 | 32186 ft | 518 kts | 117° |
| 2026-04-25 19:35 | 52.45141 | -7.51287 | 32180 ft | 518 kts | 117° |
| 2026-04-25 19:35 | 52.42203 | -7.40529 | 32189 ft | 518 kts | 117° |
| 2026-04-25 19:36 | 52.39346 | -7.29740 | 32221 ft | 521 kts | 115° |
| 2026-04-25 19:36 | 52.38018 | -7.24188 | 32436 ft | 523 kts | 114° |
| 2026-04-25 19:36 | 52.36716 | -7.18598 | 32766 ft | 522 kts | 113° |
| 2026-04-25 19:37 | 52.35425 | -7.13044 | 33092 ft | 520 kts | 113° |
| 2026-04-25 19:37 | 52.34136 | -7.07562 | 33143 ft | 522 kts | 114° |
| 2026-04-25 19:37 | 52.31564 | -6.96825 | 33169 ft | 519 kts | 114° |
| 2026-04-25 19:38 | 52.28899 | -6.85888 | 33182 ft | 517 kts | 114° |
| 2026-04-25 19:38 | 52.26219 | -6.74967 | 33187 ft | 517 kts | 114° |
| 2026-04-25 19:39 | 52.23528 | -6.64051 | 33189 ft | 518 kts | 114° |
| 2026-04-25 19:39 | 52.20840 | -6.53185 | 33193 ft | 519 kts | 114° |
| 2026-04-25 19:40 | 52.18119 | -6.42232 | 33185 ft | 521 kts | 114° |
| 2026-04-25 19:40 | 52.15397 | -6.31334 | 33191 ft | 522 kts | 114° |
| 2026-04-25 19:41 | 52.12631 | -6.20312 | 33188 ft | 523 kts | 114° |
| 2026-04-25 19:41 | 52.10332 | -6.11198 | 33185 ft | 524 kts | 114° |
| 2026-04-25 19:42 | 52.07144 | -5.98613 | 33187 ft | 524 kts | 114° |
| 2026-04-25 19:42 | 52.04373 | -5.87733 | 33193 ft | 523 kts | 114° |
| 2026-04-25 19:43 | 52.01883 | -5.76611 | 33190 ft | 524 kts | 107° |
| 2026-04-25 19:43 | 51.99993 | -5.65258 | 33198 ft | 524 kts | 106° |
| 2026-04-25 19:44 | 51.98101 | -5.53819 | 33187 ft | 524 kts | 106° |
| 2026-04-25 19:44 | 51.96164 | -5.42427 | 33188 ft | 524 kts | 107° |
| 2026-04-25 19:45 | 51.94191 | -5.31042 | 33185 ft | 524 kts | 107° |
| 2026-04-25 19:45 | 51.92207 | -5.19693 | 33191 ft | 523 kts | 107° |
| 2026-04-25 19:46 | 51.90222 | -5.08390 | 33193 ft | 523 kts | 107° |
| 2026-04-25 19:46 | 51.88257 | -4.97264 | 33194 ft | 524 kts | 107° |
| 2026-04-25 19:47 | 51.86245 | -4.85937 | 33191 ft | 524 kts | 107° |
| 2026-04-25 19:47 | 51.84217 | -4.74594 | 33191 ft | 523 kts | 107° |
| 2026-04-25 19:48 | 51.82187 | -4.63322 | 33177 ft | 522 kts | 107° |
| 2026-04-25 19:48 | 51.80151 | -4.52080 | 33182 ft | 522 kts | 107° |
| 2026-04-25 19:49 | 51.78447 | -4.42711 | 33190 ft | 521 kts | 107° |
| 2026-04-25 19:49 | 51.76058 | -4.29666 | 33188 ft | 521 kts | 107° |
| 2026-04-25 19:50 | 51.72958 | -4.12876 | 33191 ft | 520 kts | 107° |
| 2026-04-25 19:51 | 51.70883 | -4.01725 | 33188 ft | 520 kts | 107° |
| 2026-04-25 19:51 | 51.68830 | -3.90757 | 33196 ft | 520 kts | 107° |
| 2026-04-25 19:52 | 51.66733 | -3.79624 | 33194 ft | 520 kts | 107° |
| 2026-04-25 19:52 | 51.64630 | -3.68513 | 33203 ft | 521 kts | 107° |
| 2026-04-25 19:53 | 51.62497 | -3.57318 | 33185 ft | 519 kts | 107° |
| 2026-04-25 19:53 | 51.61452 | -3.51857 | 32956 ft | 516 kts | 107° |
| 2026-04-25 19:53 | 51.60382 | -3.46283 | 32556 ft | 518 kts | 107° |
| 2026-04-25 19:53 | 51.59311 | -3.40713 | 32250 ft | 523 kts | 107° |
| 2026-04-25 19:54 | 51.58240 | -3.35132 | 32227 ft | 523 kts | 107° |
| 2026-04-25 19:54 | 51.56084 | -3.24003 | 32020 ft | 517 kts | 107° |
| 2026-04-25 19:55 | 51.53956 | -3.13130 | 31756 ft | 511 kts | 107° |
| 2026-04-25 19:55 | 51.52885 | -3.07672 | 31628 ft | 510 kts | 107° |
| 2026-04-25 19:55 | 51.51811 | -3.02211 | 31507 ft | 509 kts | 107° |
| 2026-04-25 19:55 | 51.50790 | -2.97027 | 31388 ft | 509 kts | 107° |
| 2026-04-25 19:56 | 51.49723 | -2.91629 | 31262 ft | 508 kts | 107° |
| 2026-04-25 19:56 | 51.48657 | -2.86240 | 31134 ft | 507 kts | 107° |
| 2026-04-25 19:56 | 51.47583 | -2.80829 | 31018 ft | 507 kts | 107° |
| 2026-04-25 19:56 | 51.46517 | -2.75468 | 30886 ft | 506 kts | 107° |
| 2026-04-25 19:57 | 51.45443 | -2.70090 | 30769 ft | 506 kts | 107° |
| 2026-04-25 19:57 | 51.44374 | -2.64749 | 30646 ft | 505 kts | 107° |
| 2026-04-25 19:57 | 51.43287 | -2.59330 | 30517 ft | 504 kts | 107° |
| 2026-04-25 19:57 | 51.42214 | -2.53995 | 30398 ft | 503 kts | 107° |
| 2026-04-25 19:58 | 51.41194 | -2.48697 | 30266 ft | 502 kts | 104° |
| 2026-04-25 19:58 | 51.40428 | -2.43283 | 30138 ft | 500 kts | 99° |
| 2026-04-25 19:58 | 51.39997 | -2.37743 | 30025 ft | 499 kts | 95° |
| 2026-04-25 19:58 | 51.39658 | -2.32202 | 29883 ft | 498 kts | 95° |
| 2026-04-25 19:59 | 51.39322 | -2.26760 | 29510 ft | 494 kts | 95° |
| 2026-04-25 19:59 | 51.38967 | -2.21279 | 28869 ft | 491 kts | 95° |
| 2026-04-25 19:59 | 51.38603 | -2.15923 | 28151 ft | 475 kts | 95° |
| 2026-04-25 19:59 | 51.38241 | -2.10768 | 27355 ft | 469 kts | 95° |
| 2026-04-25 20:00 | 51.37871 | -2.05526 | 26488 ft | 476 kts | 96° |
| 2026-04-25 20:00 | 51.37748 | -2.03785 | 26166 ft | 476 kts | 96° |
| 2026-04-25 20:00 | 51.37140 | -1.95258 | 24540 ft | 466 kts | 96° |
| 2026-04-25 20:00 | 51.36772 | -1.90170 | 23545 ft | 458 kts | 96° |
| 2026-04-25 20:01 | 51.36045 | -1.80193 | 21545 ft | 444 kts | 96° |
| 2026-04-25 20:01 | 51.35688 | -1.75332 | 20574 ft | 437 kts | 96° |
| 2026-04-25 20:01 | 51.35334 | -1.70519 | 19562 ft | 431 kts | 96° |
| 2026-04-25 20:02 | 51.34990 | -1.65850 | 18585 ft | 425 kts | 96° |
| 2026-04-25 20:02 | 51.34643 | -1.61188 | 17586 ft | 419 kts | 96° |
| 2026-04-25 20:02 | 51.34297 | -1.56565 | 16586 ft | 413 kts | 96° |
| 2026-04-25 20:02 | 51.33959 | -1.52051 | 15597 ft | 407 kts | 96° |
| 2026-04-25 20:03 | 51.33627 | -1.47613 | 14752 ft | 397 kts | 96° |
| 2026-04-25 20:03 | 51.33294 | -1.43192 | 14385 ft | 398 kts | 96° |
| 2026-04-25 20:03 | 51.32968 | -1.38846 | 13584 ft | 395 kts | 96° |
| 2026-04-25 20:03 | 51.32640 | -1.34520 | 12570 ft | 387 kts | 96° |
| 2026-04-25 20:04 | 51.32322 | -1.30332 | 11580 ft | 378 kts | 96° |
| 2026-04-25 20:04 | 51.32004 | -1.26171 | 10754 ft | 373 kts | 96° |
| 2026-04-25 20:04 | 51.31692 | -1.22095 | 10477 ft | 371 kts | 96° |
| 2026-04-25 20:04 | 51.31380 | -1.18054 | 10290 ft | 359 kts | 96° |
| 2026-04-25 20:05 | 51.31168 | -1.14157 | 10211 ft | 344 kts | 91° |
| 2026-04-25 20:05 | 51.31131 | -1.10516 | 10176 ft | 312 kts | 89° |
| 2026-04-25 20:05 | 51.31137 | -1.07202 | 10170 ft | 285 kts | 89° |
| 2026-04-25 20:05 | 51.31141 | -1.04052 | 10215 ft | 284 kts | 89° |
| 2026-04-25 20:06 | 51.31134 | -1.00918 | 10202 ft | 284 kts | 90° |
| 2026-04-25 20:06 | 51.31119 | -0.97870 | 10085 ft | 282 kts | 90° |
| 2026-04-25 20:06 | 51.31096 | -0.94750 | 9834 ft | 281 kts | 90° |
| 2026-04-25 20:06 | 51.31070 | -0.91618 | 9519 ft | 279 kts | 90° |
| 2026-04-25 20:07 | 51.31040 | -0.88557 | 9190 ft | 279 kts | 90° |
| 2026-04-25 20:07 | 51.31009 | -0.85472 | 9027 ft | 271 kts | 90° |
| 2026-04-25 20:07 | 51.30977 | -0.82514 | 8846 ft | 263 kts | 90° |
| 2026-04-25 20:07 | 51.30945 | -0.79647 | 8653 ft | 256 kts | 90° |
| 2026-04-25 20:08 | 51.30913 | -0.76825 | 8376 ft | 254 kts | 90° |
| 2026-04-25 20:08 | 51.30881 | -0.74024 | 8260 ft | 244 kts | 90° |
| 2026-04-25 20:08 | 51.30849 | -0.71332 | 8222 ft | 247 kts | 90° |
| 2026-04-25 20:08 | 51.30816 | -0.68551 | 8208 ft | 251 kts | 90° |
| 2026-04-25 20:09 | 51.30781 | -0.65745 | 7975 ft | 252 kts | 90° |
| 2026-04-25 20:09 | 51.30747 | -0.62971 | 7678 ft | 251 kts | 90° |
| 2026-04-25 20:09 | 51.30711 | -0.60190 | 7383 ft | 249 kts | 90° |
| 2026-04-25 20:09 | 51.30675 | -0.57475 | 7262 ft | 240 kts | 90° |
| 2026-04-25 20:10 | 51.30653 | -0.55698 | 7227 ft | 239 kts | 90° |
| 2026-04-25 20:10 | 51.30609 | -0.52240 | 7227 ft | 245 kts | 90° |
| 2026-04-25 20:10 | 51.30572 | -0.49556 | 7228 ft | 249 kts | 90° |
| 2026-04-25 20:10 | 51.30534 | -0.46811 | 7215 ft | 248 kts | 90° |
| 2026-04-25 20:11 | 51.30534 | -0.44076 | 7198 ft | 242 kts | 81° |
| 2026-04-25 20:11 | 51.31144 | -0.41660 | 7225 ft | 239 kts | 49° |
| 2026-04-25 20:11 | 51.32471 | -0.40081 | 7233 ft | 242 kts | 18° |
| 2026-04-25 20:11 | 51.34141 | -0.39811 | 7224 ft | 244 kts | 348° |
| 2026-04-25 20:12 | 51.35670 | -0.40948 | 7218 ft | 243 kts | 318° |
| 2026-04-25 20:12 | 51.36617 | -0.43174 | 7216 ft | 243 kts | 289° |
| 2026-04-25 20:12 | 51.37015 | -0.45795 | 7216 ft | 245 kts | 282° |
| 2026-04-25 20:12 | 51.37121 | -0.46686 | 7207 ft | 245 kts | 281° |
| 2026-04-25 20:13 | 51.37632 | -0.51183 | 7221 ft | 246 kts | 281° |
| 2026-04-25 20:13 | 51.37930 | -0.53854 | 7223 ft | 247 kts | 281° |
| 2026-04-25 20:13 | 51.38230 | -0.56568 | 7215 ft | 248 kts | 281° |
| 2026-04-25 20:13 | 51.38530 | -0.59310 | 7209 ft | 247 kts | 281° |
| 2026-04-25 20:14 | 51.38771 | -0.62009 | 7203 ft | 246 kts | 274° |
| 2026-04-25 20:14 | 51.38820 | -0.64765 | 7088 ft | 248 kts | 271° |
| 2026-04-25 20:14 | 51.38827 | -0.67517 | 6833 ft | 250 kts | 271° |
| 2026-04-25 20:14 | 51.38828 | -0.70303 | 6577 ft | 247 kts | 271° |
| 2026-04-25 20:15 | 51.38826 | -0.73048 | 6316 ft | 244 kts | 271° |
| 2026-04-25 20:15 | 51.38822 | -0.75738 | 6057 ft | 240 kts | 271° |
| 2026-04-25 20:15 | 51.38822 | -0.78366 | 5801 ft | 235 kts | 274° |
| 2026-04-25 20:15 | 51.39247 | -0.80802 | 5477 ft | 225 kts | 306° |
| 2026-04-25 20:16 | 51.40393 | -0.82361 | 5243 ft | 211 kts | 341° |
| 2026-04-25 20:16 | 51.41785 | -0.82719 | 5050 ft | 199 kts | 358° |
| 2026-04-25 20:16 | 51.43145 | -0.82743 | 4789 ft | 194 kts | 0° |
| 2026-04-25 20:16 | 51.44472 | -0.82740 | 4552 ft | 187 kts | 0° |
| 2026-04-25 20:17 | 51.45704 | -0.82316 | 4241 ft | 185 kts | 33° |
| 2026-04-25 20:17 | 51.46541 | -0.80753 | 4050 ft | 188 kts | 60° |
| 2026-04-25 20:17 | 51.47174 | -0.78891 | 3836 ft | 192 kts | 64° |
| 2026-04-25 20:17 | 51.47426 | -0.77543 | 3630 ft | 191 kts | 81° |
| 2026-04-25 20:18 | 51.47568 | -0.75466 | 3380 ft | 181 kts | 84° |
| 2026-04-25 20:18 | 51.47636 | -0.73521 | 3105 ft | 166 kts | 87° |
| 2026-04-25 20:18 | 51.47659 | -0.71696 | 2916 ft | 166 kts | 88° |
| 2026-04-25 20:18 | 51.47671 | -0.69835 | 2673 ft | 165 kts | 89° |
| 2026-04-25 20:19 | 51.47679 | -0.68013 | 2452 ft | 163 kts | 89° |
| 2026-04-25 20:19 | 51.47685 | -0.66201 | 2237 ft | 162 kts | 89° |
| 2026-04-25 20:19 | 51.47692 | -0.64391 | 2030 ft | 162 kts | 89° |
| 2026-04-25 20:19 | 51.47698 | -0.62577 | 1805 ft | 162 kts | 89° |
| 2026-04-25 20:20 | 51.47704 | -0.60783 | 1596 ft | 161 kts | 89° |
| 2026-04-25 20:20 | 51.47711 | -0.58994 | 1377 ft | 160 kts | 89° |
| 2026-04-25 20:20 | 51.47719 | -0.57218 | 1156 ft | 159 kts | 89° |
| 2026-04-25 20:20 | 51.47725 | -0.55454 | 929 ft | 159 kts | 90° |
| 2026-04-25 20:21 | 51.47724 | -0.53670 | 729 ft | 157 kts | 90° |
| 2026-04-25 20:21 | 51.47726 | -0.51922 | 504 ft | 159 kts | 89° |
| 2026-04-25 20:21 | 51.47734 | -0.50143 | 298 ft | 158 kts | 88° |
| 2026-04-25 20:21 | 51.47757 | -0.48381 | 139 ft | 159 kts | 90° |
| 2026-04-25 20:22 | 51.47755 | -0.46667 | 97 ft | 138 kts | 90° |
| 2026-04-25 20:22 | 51.47760 | -0.45778 | 92 ft | 104 kts | 89° |
| 2026-04-25 20:22 | 51.47761 | -0.44732 | 94 ft | 38 kts | 91° |
| 2026-04-25 20:22 | 51.47738 | -0.44544 | 96 ft | 14 kts | 107° |
| 2026-04-25 20:23 | 51.47685 | -0.44335 | 91 ft | 15 kts | 115° |
| 2026-04-25 20:23 | 51.47639 | -0.44235 | 93 ft | 10 kts | 153° |
| 2026-04-25 20:23 | 51.47601 | -0.44146 | 92 ft | 10 kts | 96° |
| 2026-04-25 20:23 | 51.47583 | -0.44075 | 93 ft | 5 kts | 147° |
| 2026-04-25 20:24 | 51.47533 | -0.44062 | 95 ft | 9 kts | 178° |
| 2026-04-25 20:24 | 51.47507 | -0.44108 | 94 ft | 5 kts | 259° |
| 2026-04-25 20:24 | 51.47506 | -0.44117 | 91 ft | 4 kts | 264° |
| 2026-04-25 20:24 | 51.47504 | -0.44185 | 91 ft | 0 kts | 269° |
| 2026-04-25 20:25 | 51.47504 | -0.44194 | 91 ft | 1 kts | 269° |
| 2026-04-25 20:25 | 51.47504 | -0.44198 | 90 ft | 1 kts | 269° |
| 2026-04-25 20:25 | 51.47504 | -0.44225 | 95 ft | 4 kts | 269° |
| 2026-04-25 20:25 | 51.47504 | -0.44273 | 95 ft | 5 kts | 269° |
| 2026-04-25 20:26 | 51.47503 | -0.44329 | 93 ft | 5 kts | 269° |
| 2026-04-25 20:26 | 51.47503 | -0.44389 | 95 ft | 5 kts | 270° |
| 2026-04-25 20:26 | 51.47503 | -0.44451 | 92 ft | 6 kts | 270° |
| 2026-04-25 20:26 | 51.47503 | -0.44515 | 91 ft | 6 kts | 270° |
| 2026-04-25 20:27 | 51.47505 | -0.44584 | 95 ft | 6 kts | 276° |
| 2026-04-25 20:27 | 51.47509 | -0.44663 | 91 ft | 8 kts | 273° |
| 2026-04-25 20:27 | 51.47510 | -0.44763 | 93 ft | 10 kts | 270° |
| 2026-04-25 20:27 | 51.47511 | -0.44881 | 95 ft | 11 kts | 270° |
| 2026-04-25 20:28 | 51.47511 | -0.45010 | 95 ft | 12 kts | 269° |
| 2026-04-25 20:28 | 51.47510 | -0.45139 | 95 ft | 12 kts | 269° |
| 2026-04-25 20:28 | 51.47509 | -0.45268 | 95 ft | 12 kts | 269° |
| 2026-04-25 20:28 | 51.47508 | -0.45397 | 94 ft | 12 kts | 270° |
| 2026-04-25 20:29 | 51.47508 | -0.45527 | 92 ft | 12 kts | 270° |
| 2026-04-25 20:29 | 51.47509 | -0.45656 | 95 ft | 12 kts | 270° |
| 2026-04-25 20:29 | 51.47515 | -0.45784 | 92 ft | 12 kts | 277° |
| 2026-04-25 20:29 | 51.47518 | -0.45914 | 91 ft | 12 kts | 271° |
| 2026-04-25 20:30 | 51.47518 | -0.46044 | 93 ft | 12 kts | 269° |
| 2026-04-25 20:30 | 51.47517 | -0.46174 | 92 ft | 12 kts | 270° |
| 2026-04-25 20:30 | 51.47517 | -0.46304 | 91 ft | 12 kts | 270° |
| 2026-04-25 20:30 | 51.47516 | -0.46434 | 93 ft | 12 kts | 269° |
| 2026-04-25 20:31 | 51.47515 | -0.46563 | 94 ft | 12 kts | 269° |
| 2026-04-25 20:31 | 51.47513 | -0.46694 | 94 ft | 12 kts | 261° |
| 2026-04-25 20:31 | 51.47496 | -0.46822 | 95 ft | 12 kts | 263° |
| 2026-04-25 20:31 | 51.47494 | -0.46884 | 94 ft | 0 kts | 269° |
| 2026-04-25 20:33 | 51.47494 | -0.46916 | 92 ft | 7 kts | 269° |
| 2026-04-25 20:33 | 51.47493 | -0.46985 | 93 ft | 10 kts | 269° |
| 2026-04-25 20:34 | 51.47492 | -0.47135 | 94 ft | 10 kts | 269° |
| 2026-04-25 20:34 | 51.47491 | -0.47250 | 91 ft | 10 kts | 270° |
| 2026-04-25 20:34 | 51.47491 | -0.47368 | 94 ft | 11 kts | 270° |
| 2026-04-25 20:34 | 51.47491 | -0.47488 | 94 ft | 11 kts | 270° |
| 2026-04-25 20:35 | 51.47490 | -0.47618 | 94 ft | 13 kts | 269° |
| 2026-04-25 20:35 | 51.47489 | -0.47762 | 92 ft | 13 kts | 269° |
| 2026-04-25 20:35 | 51.47460 | -0.47870 | 91 ft | 11 kts | 188° |
| 2026-04-25 20:35 | 51.47412 | -0.47872 | 94 ft | 0 kts | 180° |
| 2026-04-25 20:36 | 51.47410 | -0.47872 | 91 ft | 1 kts | 180° |
| 2026-04-25 20:36 | 51.47405 | -0.47872 | 91 ft | 1 kts | 180° |
| 2026-04-25 20:36 | 51.47395 | -0.47872 | 94 ft | 2 kts | 180° |
| 2026-04-25 20:36 | 51.47380 | -0.47872 | 94 ft | 3 kts | 180° |
| 2026-04-25 20:37 | 51.47355 | -0.47872 | 94 ft | 5 kts | 180° |
| 2026-04-25 20:37 | 51.47317 | -0.47872 | 94 ft | 6 kts | 180° |
| 2026-04-25 20:37 | 51.47276 | -0.47873 | 91 ft | 6 kts | 180° |
| 2026-04-25 20:37 | 51.47233 | -0.47879 | 94 ft | 6 kts | 200° |
| 2026-04-25 20:38 | 51.47227 | -0.47884 | 94 ft | 1 kts | 208° |
| 2026-04-25 20:38 | 51.47222 | -0.47894 | 95 ft | 1 kts | 231° |
| 2026-04-25 20:38 | 51.47219 | -0.47913 | 93 ft | 3 kts | 253° |
| 2026-04-25 20:38 | 51.47215 | -0.47957 | 93 ft | 4 kts | 265° |
| 2026-04-25 20:39 | 51.47214 | -0.48009 | 94 ft | 4 kts | 268° |
| 2026-04-25 20:39 | 51.47214 | -0.48020 | 91 ft | 0 kts | 269° |